<?xml version="1.0" encoding="utf-8"?>
<gpx xmlns:xsi="http://www.w3.org/2001/XMLSchema-instance" xmlns:xsd="http://www.w3.org/2001/XMLSchema" version="1.1" creator="Shapelink.com" xmlns="http://www.topografix.com/GPX/1/1" xmlns:gpxtpx="http://www.garmin.com/xmlschemas/TrackPointExtension/v1">
  <metadata>
    <name>Ejecutar 12.33 km, 2020-03-09</name>
    <desc></desc>
    <author><name>Per Rooth</name></author> 
    <time>2020-03-09T17:34:20Z</time>
  </metadata>
  <trk>
    <name>Ejecutar 12.33 km, 2020-03-09</name>
    <trkseg>
      <trkpt lat="56.890878571444" lon="14.824712897639">
        <ele>167.4</ele>
        <time>2020-03-09T17:34:20Z</time>
      </trkpt>
      <trkpt lat="56.890771283124" lon="14.824977346584">
        <ele>166.8</ele>
        <time>2020-03-09T17:34:28Z</time>
      </trkpt>
      <trkpt lat="56.890739431904" lon="14.825059321566">
        <ele>166</ele>
        <time>2020-03-09T17:34:30Z</time>
      </trkpt>
      <trkpt lat="56.89066852103" lon="14.825222349521">
        <ele>165</ele>
        <time>2020-03-09T17:34:34Z</time>
      </trkpt>
      <trkpt lat="56.890542541073" lon="14.825477075462">
        <ele>164.6</ele>
        <time>2020-03-09T17:34:42Z</time>
      </trkpt>
      <trkpt lat="56.890516976278" lon="14.825526025758">
        <ele>164.6</ele>
        <time>2020-03-09T17:34:44Z</time>
      </trkpt>
      <trkpt lat="56.890448328517" lon="14.82586113412">
        <ele>164.2</ele>
        <time>2020-03-09T17:34:52Z</time>
      </trkpt>
      <trkpt lat="56.890421925532" lon="14.825981665842">
        <ele>163.8</ele>
        <time>2020-03-09T17:34:55Z</time>
      </trkpt>
      <trkpt lat="56.890364425698" lon="14.826315181643">
        <ele>163.2</ele>
        <time>2020-03-09T17:35:03Z</time>
      </trkpt>
      <trkpt lat="56.890347158984" lon="14.826618774061">
        <ele>162.8</ele>
        <time>2020-03-09T17:35:11Z</time>
      </trkpt>
      <trkpt lat="56.890345398785" lon="14.826656073516">
        <ele>162.8</ele>
        <time>2020-03-09T17:35:12Z</time>
      </trkpt>
      <trkpt lat="56.890346739889" lon="14.826691528953">
        <ele>162.6</ele>
        <time>2020-03-09T17:35:13Z</time>
      </trkpt>
      <trkpt lat="56.89033827417" lon="14.82702035089">
        <ele>162.8</ele>
        <time>2020-03-09T17:35:23Z</time>
      </trkpt>
      <trkpt lat="56.890318828162" lon="14.827384795902">
        <ele>162.2</ele>
        <time>2020-03-09T17:35:33Z</time>
      </trkpt>
      <trkpt lat="56.890313547565" lon="14.827497783914">
        <ele>162.4</ele>
        <time>2020-03-09T17:35:36Z</time>
      </trkpt>
      <trkpt lat="56.890222855407" lon="14.82778310379">
        <ele>162.2</ele>
        <time>2020-03-09T17:35:42Z</time>
      </trkpt>
      <trkpt lat="56.890188824893" lon="14.827951328523">
        <ele>162.4</ele>
        <time>2020-03-09T17:35:45Z</time>
      </trkpt>
      <trkpt lat="56.890055887959" lon="14.828207395568">
        <ele>163</ele>
        <time>2020-03-09T17:35:53Z</time>
      </trkpt>
      <trkpt lat="56.889977936289" lon="14.828389701893">
        <ele>162.8</ele>
        <time>2020-03-09T17:35:58Z</time>
      </trkpt>
      <trkpt lat="56.889885903027" lon="14.828682649298">
        <ele>162.4</ele>
        <time>2020-03-09T17:36:06Z</time>
      </trkpt>
      <trkpt lat="56.88986804958" lon="14.828765043375">
        <ele>162.4</ele>
        <time>2020-03-09T17:36:08Z</time>
      </trkpt>
      <trkpt lat="56.889868384856" lon="14.828979284739">
        <ele>162.6</ele>
        <time>2020-03-09T17:36:13Z</time>
      </trkpt>
      <trkpt lat="56.889871737616" lon="14.829196627406">
        <ele>162.4</ele>
        <time>2020-03-09T17:36:18Z</time>
      </trkpt>
      <trkpt lat="56.889742404899" lon="14.82930525683">
        <ele>162</ele>
        <time>2020-03-09T17:36:25Z</time>
      </trkpt>
      <trkpt lat="56.889540904023" lon="14.829363427216">
        <ele>162.2</ele>
        <time>2020-03-09T17:36:34Z</time>
      </trkpt>
      <trkpt lat="56.889339654604" lon="14.829455125202">
        <ele>162.2</ele>
        <time>2020-03-09T17:36:42Z</time>
      </trkpt>
      <trkpt lat="56.889261954391" lon="14.829531484311">
        <ele>162</ele>
        <time>2020-03-09T17:36:45Z</time>
      </trkpt>
      <trkpt lat="56.889237227786" lon="14.829551768509">
        <ele>161.6</ele>
        <time>2020-03-09T17:36:46Z</time>
      </trkpt>
      <trkpt lat="56.889048970312" lon="14.829677580828">
        <ele>161</ele>
        <time>2020-03-09T17:36:53Z</time>
      </trkpt>
      <trkpt lat="56.888856773345" lon="14.829766177511">
        <ele>161</ele>
        <time>2020-03-09T17:37:00Z</time>
      </trkpt>
      <trkpt lat="56.888673796468" lon="14.829796687627">
        <ele>160.8</ele>
        <time>2020-03-09T17:37:07Z</time>
      </trkpt>
      <trkpt lat="56.888653428451" lon="14.82980481807">
        <ele>160.6</ele>
        <time>2020-03-09T17:37:08Z</time>
      </trkpt>
      <trkpt lat="56.888503643898" lon="14.830034314492">
        <ele>160.8</ele>
        <time>2020-03-09T17:37:16Z</time>
      </trkpt>
      <trkpt lat="56.88840289346" lon="14.830335643797">
        <ele>161.4</ele>
        <time>2020-03-09T17:37:24Z</time>
      </trkpt>
      <trkpt lat="56.888334748613" lon="14.830581149648">
        <ele>161.4</ele>
        <time>2020-03-09T17:37:30Z</time>
      </trkpt>
      <trkpt lat="56.888301891565" lon="14.830862446212">
        <ele>161.8</ele>
        <time>2020-03-09T17:37:37Z</time>
      </trkpt>
      <trkpt lat="56.88827632677" lon="14.831114154669">
        <ele>163</ele>
        <time>2020-03-09T17:37:45Z</time>
      </trkpt>
      <trkpt lat="56.888246906301" lon="14.831309536758">
        <ele>164</ele>
        <time>2020-03-09T17:37:50Z</time>
      </trkpt>
      <trkpt lat="56.888223856076" lon="14.831479689328">
        <ele>165</ele>
        <time>2020-03-09T17:37:54Z</time>
      </trkpt>
      <trkpt lat="56.888220587135" lon="14.831516653507">
        <ele>165.4</ele>
        <time>2020-03-09T17:37:55Z</time>
      </trkpt>
      <trkpt lat="56.888220754773" lon="14.831699295108">
        <ele>166.4</ele>
        <time>2020-03-09T17:37:59Z</time>
      </trkpt>
      <trkpt lat="56.888215390357" lon="14.831931473738">
        <ele>167.6</ele>
        <time>2020-03-09T17:38:04Z</time>
      </trkpt>
      <trkpt lat="56.888225364818" lon="14.83215677921">
        <ele>168.8</ele>
        <time>2020-03-09T17:38:09Z</time>
      </trkpt>
      <trkpt lat="56.888241458066" lon="14.832483338034">
        <ele>169.2</ele>
        <time>2020-03-09T17:38:16Z</time>
      </trkpt>
      <trkpt lat="56.888247409215" lon="14.832726664591">
        <ele>169.8</ele>
        <time>2020-03-09T17:38:21Z</time>
      </trkpt>
      <trkpt lat="56.888277667874" lon="14.833077698563">
        <ele>170</ele>
        <time>2020-03-09T17:38:26Z</time>
      </trkpt>
      <trkpt lat="56.888271884363" lon="14.833427726707">
        <ele>170.6</ele>
        <time>2020-03-09T17:38:32Z</time>
      </trkpt>
      <trkpt lat="56.888288648163" lon="14.83357080574">
        <ele>170.8</ele>
        <time>2020-03-09T17:38:35Z</time>
      </trkpt>
      <trkpt lat="56.88832242722" lon="14.833905662645">
        <ele>171.4</ele>
        <time>2020-03-09T17:38:43Z</time>
      </trkpt>
      <trkpt lat="56.888340364486" lon="14.834044215452">
        <ele>171.8</ele>
        <time>2020-03-09T17:38:46Z</time>
      </trkpt>
      <trkpt lat="56.888359475218" lon="14.83436960081">
        <ele>171.8</ele>
        <time>2020-03-09T17:38:53Z</time>
      </trkpt>
      <trkpt lat="56.888334748613" lon="14.83464871808">
        <ele>172.8</ele>
        <time>2020-03-09T17:39:01Z</time>
      </trkpt>
      <trkpt lat="56.888317900994" lon="14.834786265059">
        <ele>173.6</ele>
        <time>2020-03-09T17:39:05Z</time>
      </trkpt>
      <trkpt lat="56.888313123311" lon="14.834825073256">
        <ele>174</ele>
        <time>2020-03-09T17:39:06Z</time>
      </trkpt>
      <trkpt lat="56.888292839113" lon="14.835162947645">
        <ele>175</ele>
        <time>2020-03-09T17:39:15Z</time>
      </trkpt>
      <trkpt lat="56.888269118336" lon="14.835495960532">
        <ele>174</ele>
        <time>2020-03-09T17:39:23Z</time>
      </trkpt>
      <trkpt lat="56.888190328476" lon="14.835839450794">
        <ele>173.4</ele>
        <time>2020-03-09T17:39:31Z</time>
      </trkpt>
      <trkpt lat="56.888106677114" lon="14.836154777872">
        <ele>173.2</ele>
        <time>2020-03-09T17:39:37Z</time>
      </trkpt>
      <trkpt lat="56.888043226131" lon="14.836476726651">
        <ele>173.2</ele>
        <time>2020-03-09T17:39:44Z</time>
      </trkpt>
      <trkpt lat="56.887986229211" lon="14.836790377349">
        <ele>173.4</ele>
        <time>2020-03-09T17:39:50Z</time>
      </trkpt>
      <trkpt lat="56.887945074082" lon="14.837132023593">
        <ele>174.2</ele>
        <time>2020-03-09T17:39:57Z</time>
      </trkpt>
      <trkpt lat="56.887962173158" lon="14.83748096209">
        <ele>174.8</ele>
        <time>2020-03-09T17:40:04Z</time>
      </trkpt>
      <trkpt lat="56.887962759891" lon="14.83765195285">
        <ele>174.8</ele>
        <time>2020-03-09T17:40:08Z</time>
      </trkpt>
      <trkpt lat="56.887927975006" lon="14.838014721482">
        <ele>174.4</ele>
        <time>2020-03-09T17:40:16Z</time>
      </trkpt>
      <trkpt lat="56.887902410211" lon="14.838373047707">
        <ele>174.4</ele>
        <time>2020-03-09T17:40:23Z</time>
      </trkpt>
      <trkpt lat="56.887883718574" lon="14.838705892956">
        <ele>174.6</ele>
        <time>2020-03-09T17:40:30Z</time>
      </trkpt>
      <trkpt lat="56.887886484601" lon="14.838793148535">
        <ele>175</ele>
        <time>2020-03-09T17:40:32Z</time>
      </trkpt>
      <trkpt lat="56.887936440725" lon="14.839144433964">
        <ele>175.8</ele>
        <time>2020-03-09T17:40:40Z</time>
      </trkpt>
      <trkpt lat="56.888086392916" lon="14.839345515745">
        <ele>175.4</ele>
        <time>2020-03-09T17:40:47Z</time>
      </trkpt>
      <trkpt lat="56.888254701468" lon="14.83953452759">
        <ele>174.4</ele>
        <time>2020-03-09T17:40:56Z</time>
      </trkpt>
      <trkpt lat="56.888418986708" lon="14.839708116739">
        <ele>174</ele>
        <time>2020-03-09T17:41:04Z</time>
      </trkpt>
      <trkpt lat="56.888497189835" lon="14.839797803069">
        <ele>173.4</ele>
        <time>2020-03-09T17:41:08Z</time>
      </trkpt>
      <trkpt lat="56.888654853374" lon="14.839974744978">
        <ele>173.6</ele>
        <time>2020-03-09T17:41:17Z</time>
      </trkpt>
      <trkpt lat="56.888780246598" lon="14.840076417425">
        <ele>173.4</ele>
        <time>2020-03-09T17:41:23Z</time>
      </trkpt>
      <trkpt lat="56.888956182679" lon="14.840201140097">
        <ele>173.2</ele>
        <time>2020-03-09T17:41:29Z</time>
      </trkpt>
      <trkpt lat="56.889008821011" lon="14.840245564167">
        <ele>172.8</ele>
        <time>2020-03-09T17:41:31Z</time>
      </trkpt>
      <trkpt lat="56.889175369364" lon="14.840369616287">
        <ele>173.2</ele>
        <time>2020-03-09T17:41:38Z</time>
      </trkpt>
      <trkpt lat="56.889358178603" lon="14.840475647322">
        <ele>173.6</ele>
        <time>2020-03-09T17:41:44Z</time>
      </trkpt>
      <trkpt lat="56.889528666449" lon="14.840624509866">
        <ele>173.8</ele>
        <time>2020-03-09T17:41:51Z</time>
      </trkpt>
      <trkpt lat="56.889551884312" lon="14.840643955874">
        <ele>174</ele>
        <time>2020-03-09T17:41:52Z</time>
      </trkpt>
      <trkpt lat="56.889629752163" lon="14.840748561986">
        <ele>175.2</ele>
        <time>2020-03-09T17:41:56Z</time>
      </trkpt>
      <trkpt lat="56.889784062942" lon="14.840928772836">
        <ele>174.8</ele>
        <time>2020-03-09T17:42:03Z</time>
      </trkpt>
      <trkpt lat="56.88983452198" lon="14.840975962933">
        <ele>174</ele>
        <time>2020-03-09T17:42:05Z</time>
      </trkpt>
      <trkpt lat="56.889913144202" lon="14.841031451111">
        <ele>172.8</ele>
        <time>2020-03-09T17:42:08Z</time>
      </trkpt>
      <trkpt lat="56.890101820771" lon="14.841118622871">
        <ele>172.2</ele>
        <time>2020-03-09T17:42:14Z</time>
      </trkpt>
      <trkpt lat="56.890194021671" lon="14.841166399701">
        <ele>171.6</ele>
        <time>2020-03-09T17:42:17Z</time>
      </trkpt>
      <trkpt lat="56.890330562822" lon="14.841251475986">
        <ele>170.6</ele>
        <time>2020-03-09T17:42:22Z</time>
      </trkpt>
      <trkpt lat="56.890488980732" lon="14.841414923036">
        <ele>171.4</ele>
        <time>2020-03-09T17:42:30Z</time>
      </trkpt>
      <trkpt lat="56.890524268531" lon="14.841461777857">
        <ele>171.6</ele>
        <time>2020-03-09T17:42:32Z</time>
      </trkpt>
      <trkpt lat="56.890637256543" lon="14.841602929053">
        <ele>172.6</ele>
        <time>2020-03-09T17:42:37Z</time>
      </trkpt>
      <trkpt lat="56.890750160736" lon="14.841752713606">
        <ele>173.6</ele>
        <time>2020-03-09T17:42:42Z</time>
      </trkpt>
      <trkpt lat="56.890890054647" lon="14.841962093468">
        <ele>172.8</ele>
        <time>2020-03-09T17:42:49Z</time>
      </trkpt>
      <trkpt lat="56.890906147895" lon="14.841999141466">
        <ele>172.6</ele>
        <time>2020-03-09T17:42:50Z</time>
      </trkpt>
      <trkpt lat="56.89100128246" lon="14.842184213818">
        <ele>171.6</ele>
        <time>2020-03-09T17:42:54Z</time>
      </trkpt>
      <trkpt lat="56.891069259669" lon="14.842389738006">
        <ele>170.6</ele>
        <time>2020-03-09T17:42:58Z</time>
      </trkpt>
      <trkpt lat="56.891099518328" lon="14.842480933078">
        <ele>170.4</ele>
        <time>2020-03-09T17:43:00Z</time>
      </trkpt>
      <trkpt lat="56.891161628207" lon="14.842615211116">
        <ele>169.4</ele>
        <time>2020-03-09T17:43:03Z</time>
      </trkpt>
      <trkpt lat="56.891289116906" lon="14.842876642577">
        <ele>168.8</ele>
        <time>2020-03-09T17:43:10Z</time>
      </trkpt>
      <trkpt lat="56.891413252845" lon="14.843196160605">
        <ele>168.4</ele>
        <time>2020-03-09T17:43:17Z</time>
      </trkpt>
      <trkpt lat="56.891472093783" lon="14.843531939519">
        <ele>168.6</ele>
        <time>2020-03-09T17:43:24Z</time>
      </trkpt>
      <trkpt lat="56.891493467628" lon="14.843757077353">
        <ele>169.6</ele>
        <time>2020-03-09T17:43:28Z</time>
      </trkpt>
      <trkpt lat="56.891518110414" lon="14.843984645938">
        <ele>170.6</ele>
        <time>2020-03-09T17:43:33Z</time>
      </trkpt>
      <trkpt lat="56.891564210864" lon="14.844174412154">
        <ele>171.8</ele>
        <time>2020-03-09T17:43:37Z</time>
      </trkpt>
      <trkpt lat="56.89161232297" lon="14.84451756714">
        <ele>171.8</ele>
        <time>2020-03-09T17:43:44Z</time>
      </trkpt>
      <trkpt lat="56.891663787836" lon="14.844708423003">
        <ele>170.8</ele>
        <time>2020-03-09T17:43:48Z</time>
      </trkpt>
      <trkpt lat="56.89171290577" lon="14.844907912223">
        <ele>169.6</ele>
        <time>2020-03-09T17:43:52Z</time>
      </trkpt>
      <trkpt lat="56.891848105817" lon="14.845156603196">
        <ele>168.8</ele>
        <time>2020-03-09T17:43:59Z</time>
      </trkpt>
      <trkpt lat="56.891886159643" lon="14.845211001727">
        <ele>168.4</ele>
        <time>2020-03-09T17:44:01Z</time>
      </trkpt>
      <trkpt lat="56.892076428773" lon="14.845287947569">
        <ele>168.2</ele>
        <time>2020-03-09T17:44:10Z</time>
      </trkpt>
      <trkpt lat="56.892269715387" lon="14.845275039443">
        <ele>169.2</ele>
        <time>2020-03-09T17:44:18Z</time>
      </trkpt>
      <trkpt lat="56.892321683167" lon="14.845297167659">
        <ele>169.6</ele>
        <time>2020-03-09T17:44:20Z</time>
      </trkpt>
      <trkpt lat="56.892446489658" lon="14.845546110089">
        <ele>170</ele>
        <time>2020-03-09T17:44:27Z</time>
      </trkpt>
      <trkpt lat="56.892509521546" lon="14.845696816651">
        <ele>170.6</ele>
        <time>2020-03-09T17:44:30Z</time>
      </trkpt>
      <trkpt lat="56.892616223133" lon="14.845990350789">
        <ele>170.6</ele>
        <time>2020-03-09T17:44:36Z</time>
      </trkpt>
      <trkpt lat="56.892708340214" lon="14.846314143586">
        <ele>171</ele>
        <time>2020-03-09T17:44:43Z</time>
      </trkpt>
      <trkpt lat="56.892799116191" lon="14.846625112076">
        <ele>171.2</ele>
        <time>2020-03-09T17:44:51Z</time>
      </trkpt>
      <trkpt lat="56.892931047297" lon="14.846717899709">
        <ele>171.6</ele>
        <time>2020-03-09T17:44:57Z</time>
      </trkpt>
      <trkpt lat="56.893118718038" lon="14.846786463651">
        <ele>172.6</ele>
        <time>2020-03-09T17:45:05Z</time>
      </trkpt>
      <trkpt lat="56.893321727656" lon="14.846834911033">
        <ele>172.4</ele>
        <time>2020-03-09T17:45:13Z</time>
      </trkpt>
      <trkpt lat="56.893401942439" lon="14.846871791393">
        <ele>171.8</ele>
        <time>2020-03-09T17:45:16Z</time>
      </trkpt>
      <trkpt lat="56.893427507234" lon="14.846884783338">
        <ele>171.6</ele>
        <time>2020-03-09T17:45:17Z</time>
      </trkpt>
      <trkpt lat="56.893613585414" lon="14.846969691985">
        <ele>171.4</ele>
        <time>2020-03-09T17:45:24Z</time>
      </trkpt>
      <trkpt lat="56.893795388825" lon="14.84707907578">
        <ele>171.6</ele>
        <time>2020-03-09T17:45:32Z</time>
      </trkpt>
      <trkpt lat="56.893890104295" lon="14.847264231951">
        <ele>172.8</ele>
        <time>2020-03-09T17:45:39Z</time>
      </trkpt>
      <trkpt lat="56.894033770061" lon="14.847555419157">
        <ele>173.8</ele>
        <time>2020-03-09T17:45:46Z</time>
      </trkpt>
      <trkpt lat="56.894173999248" lon="14.847797153153">
        <ele>174.4</ele>
        <time>2020-03-09T17:45:52Z</time>
      </trkpt>
      <trkpt lat="56.894250442176" lon="14.847951380113">
        <ele>175</ele>
        <time>2020-03-09T17:45:56Z</time>
      </trkpt>
      <trkpt lat="56.894315569539" lon="14.84810166758">
        <ele>176.4</ele>
        <time>2020-03-09T17:46:00Z</time>
      </trkpt>
      <trkpt lat="56.894374578115" lon="14.84821398504">
        <ele>177.6</ele>
        <time>2020-03-09T17:46:03Z</time>
      </trkpt>
      <trkpt lat="56.894414224502" lon="14.848353878951">
        <ele>178.8</ele>
        <time>2020-03-09T17:46:06Z</time>
      </trkpt>
      <trkpt lat="56.894453032699" lon="14.848687730028">
        <ele>179.6</ele>
        <time>2020-03-09T17:46:13Z</time>
      </trkpt>
      <trkpt lat="56.894408440991" lon="14.849018563621">
        <ele>177.4</ele>
        <time>2020-03-09T17:46:20Z</time>
      </trkpt>
      <trkpt lat="56.894369213699" lon="14.849152925478">
        <ele>176</ele>
        <time>2020-03-09T17:46:23Z</time>
      </trkpt>
      <trkpt lat="56.894337697755" lon="14.849363897901">
        <ele>174.8</ele>
        <time>2020-03-09T17:46:27Z</time>
      </trkpt>
      <trkpt lat="56.894337530117" lon="14.849599345472">
        <ele>173.6</ele>
        <time>2020-03-09T17:46:31Z</time>
      </trkpt>
      <trkpt lat="56.894351360252" lon="14.849928586504">
        <ele>172.6</ele>
        <time>2020-03-09T17:46:35Z</time>
      </trkpt>
      <trkpt lat="56.89440014291" lon="14.850065379112">
        <ele>171.6</ele>
        <time>2020-03-09T17:46:38Z</time>
      </trkpt>
      <trkpt lat="56.894537438432" lon="14.850315243551">
        <ele>170.6</ele>
        <time>2020-03-09T17:46:46Z</time>
      </trkpt>
      <trkpt lat="56.894649672073" lon="14.850620847625">
        <ele>171.6</ele>
        <time>2020-03-09T17:46:54Z</time>
      </trkpt>
      <trkpt lat="56.894802390291" lon="14.850707516471">
        <ele>172.6</ele>
        <time>2020-03-09T17:47:00Z</time>
      </trkpt>
      <trkpt lat="56.894999867855" lon="14.850717071837">
        <ele>172.4</ele>
        <time>2020-03-09T17:47:07Z</time>
      </trkpt>
      <trkpt lat="56.895183515284" lon="14.850757975509">
        <ele>171.8</ele>
        <time>2020-03-09T17:47:14Z</time>
      </trkpt>
      <trkpt lat="56.89536741417" lon="14.850834586075">
        <ele>172.4</ele>
        <time>2020-03-09T17:47:21Z</time>
      </trkpt>
      <trkpt lat="56.895563969725" lon="14.850859899413">
        <ele>171.6</ele>
        <time>2020-03-09T17:47:28Z</time>
      </trkpt>
      <trkpt lat="56.895586433217" lon="14.850886889131">
        <ele>171.6</ele>
        <time>2020-03-09T17:47:29Z</time>
      </trkpt>
      <trkpt lat="56.89577477451" lon="14.851023849377">
        <ele>171</ele>
        <time>2020-03-09T17:47:36Z</time>
      </trkpt>
      <trkpt lat="56.895915003697" lon="14.851264242269">
        <ele>171.4</ele>
        <time>2020-03-09T17:47:43Z</time>
      </trkpt>
      <trkpt lat="56.896045426061" lon="14.85152232097">
        <ele>172</ele>
        <time>2020-03-09T17:47:50Z</time>
      </trkpt>
      <trkpt lat="56.896168220896" lon="14.851839408247">
        <ele>171.6</ele>
        <time>2020-03-09T17:47:56Z</time>
      </trkpt>
      <trkpt lat="56.896264026013" lon="14.852126739779">
        <ele>170.8</ele>
        <time>2020-03-09T17:48:02Z</time>
      </trkpt>
      <trkpt lat="56.896307108979" lon="14.852258000333">
        <ele>170.6</ele>
        <time>2020-03-09T17:48:05Z</time>
      </trkpt>
      <trkpt lat="56.896422946837" lon="14.852539296897">
        <ele>169.8</ele>
        <time>2020-03-09T17:48:12Z</time>
      </trkpt>
      <trkpt lat="56.896433927126" lon="14.852865520445">
        <ele>171.6</ele>
        <time>2020-03-09T17:48:18Z</time>
      </trkpt>
      <trkpt lat="56.896460581568" lon="14.853185541387">
        <ele>172.6</ele>
        <time>2020-03-09T17:48:24Z</time>
      </trkpt>
      <trkpt lat="56.896489163847" lon="14.853309761145">
        <ele>172.6</ele>
        <time>2020-03-09T17:48:26Z</time>
      </trkpt>
      <trkpt lat="56.896508274579" lon="14.853636990521">
        <ele>172.4</ele>
        <time>2020-03-09T17:48:33Z</time>
      </trkpt>
      <trkpt lat="56.896563678938" lon="14.853972937073">
        <ele>172.6</ele>
        <time>2020-03-09T17:48:39Z</time>
      </trkpt>
      <trkpt lat="56.896603912058" lon="14.854334783696">
        <ele>171.8</ele>
        <time>2020-03-09T17:48:45Z</time>
      </trkpt>
      <trkpt lat="56.89662469917" lon="14.85450124823">
        <ele>171.6</ele>
        <time>2020-03-09T17:48:48Z</time>
      </trkpt>
      <trkpt lat="56.896692424922" lon="14.854853036573">
        <ele>171.4</ele>
        <time>2020-03-09T17:48:54Z</time>
      </trkpt>
      <trkpt lat="56.896711787111" lon="14.854884720155">
        <ele>171.4</ele>
        <time>2020-03-09T17:48:55Z</time>
      </trkpt>
      <trkpt lat="56.896898452024" lon="14.854853204211">
        <ele>172</ele>
        <time>2020-03-09T17:49:02Z</time>
      </trkpt>
      <trkpt lat="56.89709911471" lon="14.854774330532">
        <ele>172.2</ele>
        <time>2020-03-09T17:49:10Z</time>
      </trkpt>
      <trkpt lat="56.897294832075" lon="14.85469989926">
        <ele>171.8</ele>
        <time>2020-03-09T17:49:17Z</time>
      </trkpt>
      <trkpt lat="56.897419890023" lon="14.854901148679">
        <ele>171.6</ele>
        <time>2020-03-09T17:49:24Z</time>
      </trkpt>
      <trkpt lat="56.897490381802" lon="14.855230054435">
        <ele>171.2</ele>
        <time>2020-03-09T17:49:30Z</time>
      </trkpt>
      <trkpt lat="56.897539667374" lon="14.85555569125">
        <ele>170.8</ele>
        <time>2020-03-09T17:49:36Z</time>
      </trkpt>
      <trkpt lat="56.897570764223" lon="14.855901109349">
        <ele>170.8</ele>
        <time>2020-03-09T17:49:42Z</time>
      </trkpt>
      <trkpt lat="56.897611584076" lon="14.856279635953">
        <ele>170.8</ele>
        <time>2020-03-09T17:49:49Z</time>
      </trkpt>
      <trkpt lat="56.897704790804" lon="14.856614073763">
        <ele>170.8</ele>
        <time>2020-03-09T17:49:56Z</time>
      </trkpt>
      <trkpt lat="56.897787939252" lon="14.856872906835">
        <ele>170.4</ele>
        <time>2020-03-09T17:50:02Z</time>
      </trkpt>
      <trkpt lat="56.897807804355" lon="14.857260485891">
        <ele>171</ele>
        <time>2020-03-09T17:50:10Z</time>
      </trkpt>
      <trkpt lat="56.897841918688" lon="14.857617554831">
        <ele>171.2</ele>
        <time>2020-03-09T17:50:17Z</time>
      </trkpt>
      <trkpt lat="56.897832111865" lon="14.857906227467">
        <ele>171.6</ele>
        <time>2020-03-09T17:50:22Z</time>
      </trkpt>
      <trkpt lat="56.89783588372" lon="14.858243934218">
        <ele>172.2</ele>
        <time>2020-03-09T17:50:29Z</time>
      </trkpt>
      <trkpt lat="56.897835380806" lon="14.858341583353">
        <ele>172.8</ele>
        <time>2020-03-09T17:50:31Z</time>
      </trkpt>
      <trkpt lat="56.897853904805" lon="14.858572504698">
        <ele>174</ele>
        <time>2020-03-09T17:50:37Z</time>
      </trkpt>
      <trkpt lat="56.897866393836" lon="14.858690857126">
        <ele>174.2</ele>
        <time>2020-03-09T17:50:40Z</time>
      </trkpt>
      <trkpt lat="56.897782407198" lon="14.858850113226">
        <ele>175</ele>
        <time>2020-03-09T17:50:45Z</time>
      </trkpt>
      <trkpt lat="56.897612757542" lon="14.858996712657">
        <ele>176</ele>
        <time>2020-03-09T17:50:54Z</time>
      </trkpt>
      <trkpt lat="56.897590880783" lon="14.859015488113">
        <ele>176</ele>
        <time>2020-03-09T17:50:55Z</time>
      </trkpt>
      <trkpt lat="56.897419387109" lon="14.859159740612">
        <ele>177</ele>
        <time>2020-03-09T17:51:02Z</time>
      </trkpt>
      <trkpt lat="56.897316541196" lon="14.859225203251">
        <ele>177</ele>
        <time>2020-03-09T17:51:06Z</time>
      </trkpt>
      <trkpt lat="56.897118057804" lon="14.859299131609">
        <ele>177.4</ele>
        <time>2020-03-09T17:51:12Z</time>
      </trkpt>
      <trkpt lat="56.896931895805" lon="14.859308100242">
        <ele>177.8</ele>
        <time>2020-03-09T17:51:18Z</time>
      </trkpt>
      <trkpt lat="56.896747410186" lon="14.859269292045">
        <ele>178</ele>
        <time>2020-03-09T17:51:24Z</time>
      </trkpt>
      <trkpt lat="56.896556135228" lon="14.859306842957">
        <ele>177.8</ele>
        <time>2020-03-09T17:51:31Z</time>
      </trkpt>
      <trkpt lat="56.896487655105" lon="14.8593652648">
        <ele>178.2</ele>
        <time>2020-03-09T17:51:34Z</time>
      </trkpt>
      <trkpt lat="56.896343821701" lon="14.859581434001">
        <ele>179</ele>
        <time>2020-03-09T17:51:41Z</time>
      </trkpt>
      <trkpt lat="56.896322028761" lon="14.859604819502">
        <ele>179.2</ele>
        <time>2020-03-09T17:51:42Z</time>
      </trkpt>
      <trkpt lat="56.896194288605" lon="14.859856108864">
        <ele>180</ele>
        <time>2020-03-09T17:51:48Z</time>
      </trkpt>
      <trkpt lat="56.896139051884" lon="14.860001534829">
        <ele>180.4</ele>
        <time>2020-03-09T17:51:51Z</time>
      </trkpt>
      <trkpt lat="56.896034194315" lon="14.860293895501">
        <ele>181</ele>
        <time>2020-03-09T17:51:57Z</time>
      </trkpt>
      <trkpt lat="56.896002007819" lon="14.860402692563">
        <ele>181.4</ele>
        <time>2020-03-09T17:51:59Z</time>
      </trkpt>
      <trkpt lat="56.895920451932" lon="14.860742159513">
        <ele>182.6</ele>
        <time>2020-03-09T17:52:06Z</time>
      </trkpt>
      <trkpt lat="56.895827161385" lon="14.861061845179">
        <ele>183</ele>
        <time>2020-03-09T17:52:14Z</time>
      </trkpt>
      <trkpt lat="56.895731607725" lon="14.861381782302">
        <ele>183.6</ele>
        <time>2020-03-09T17:52:20Z</time>
      </trkpt>
      <trkpt lat="56.895602777922" lon="14.861621923737">
        <ele>184.2</ele>
        <time>2020-03-09T17:52:27Z</time>
      </trkpt>
      <trkpt lat="56.895410413317" lon="14.861617565149">
        <ele>184.6</ele>
        <time>2020-03-09T17:52:33Z</time>
      </trkpt>
      <trkpt lat="56.895351320922" lon="14.861623264841">
        <ele>184.6</ele>
        <time>2020-03-09T17:52:35Z</time>
      </trkpt>
      <trkpt lat="56.895163147267" lon="14.861636089148">
        <ele>184.8</ele>
        <time>2020-03-09T17:52:42Z</time>
      </trkpt>
      <trkpt lat="56.894962316943" lon="14.861623600117">
        <ele>184.8</ele>
        <time>2020-03-09T17:52:49Z</time>
      </trkpt>
      <trkpt lat="56.894769114148" lon="14.861617900425">
        <ele>184.6</ele>
        <time>2020-03-09T17:52:58Z</time>
      </trkpt>
      <trkpt lat="56.894718236015" lon="14.861649751645">
        <ele>184.6</ele>
        <time>2020-03-09T17:53:00Z</time>
      </trkpt>
      <trkpt lat="56.894609941867" lon="14.861913781495">
        <ele>184.6</ele>
        <time>2020-03-09T17:53:06Z</time>
      </trkpt>
      <trkpt lat="56.894527631609" lon="14.862217876827">
        <ele>185.4</ele>
        <time>2020-03-09T17:53:12Z</time>
      </trkpt>
      <trkpt lat="56.894517824786" lon="14.862262971449">
        <ele>185.8</ele>
        <time>2020-03-09T17:53:13Z</time>
      </trkpt>
      <trkpt lat="56.894455128174" lon="14.862475452614">
        <ele>186.8</ele>
        <time>2020-03-09T17:53:17Z</time>
      </trkpt>
      <trkpt lat="56.894411961389" lon="14.862608389548">
        <ele>188</ele>
        <time>2020-03-09T17:53:20Z</time>
      </trkpt>
      <trkpt lat="56.894330740778" lon="14.862853224847">
        <ele>189</ele>
        <time>2020-03-09T17:53:25Z</time>
      </trkpt>
      <trkpt lat="56.894217836585" lon="14.863141226931">
        <ele>190</ele>
        <time>2020-03-09T17:53:32Z</time>
      </trkpt>
      <trkpt lat="56.894164527701" lon="14.863153380686">
        <ele>190</ele>
        <time>2020-03-09T17:53:34Z</time>
      </trkpt>
      <trkpt lat="56.893976773141" lon="14.863168300468">
        <ele>189.8</ele>
        <time>2020-03-09T17:53:41Z</time>
      </trkpt>
      <trkpt lat="56.893792538979" lon="14.863135191963">
        <ele>189.6</ele>
        <time>2020-03-09T17:53:48Z</time>
      </trkpt>
      <trkpt lat="56.89360050965" lon="14.863162852233">
        <ele>189.6</ele>
        <time>2020-03-09T17:53:55Z</time>
      </trkpt>
      <trkpt lat="56.893392554711" lon="14.86311784143">
        <ele>189.6</ele>
        <time>2020-03-09T17:54:02Z</time>
      </trkpt>
      <trkpt lat="56.893196753527" lon="14.863127312977">
        <ele>189.4</ele>
        <time>2020-03-09T17:54:09Z</time>
      </trkpt>
      <trkpt lat="56.893071108846" lon="14.863112728471">
        <ele>189.6</ele>
        <time>2020-03-09T17:54:14Z</time>
      </trkpt>
      <trkpt lat="56.892874469472" lon="14.863119098715">
        <ele>189.4</ele>
        <time>2020-03-09T17:54:20Z</time>
      </trkpt>
      <trkpt lat="56.892689900034" lon="14.863205180828">
        <ele>189.4</ele>
        <time>2020-03-09T17:54:26Z</time>
      </trkpt>
      <trkpt lat="56.892558220385" lon="14.863458314208">
        <ele>189.8</ele>
        <time>2020-03-09T17:54:32Z</time>
      </trkpt>
      <trkpt lat="56.892460655069" lon="14.863787974335">
        <ele>190.2</ele>
        <time>2020-03-09T17:54:38Z</time>
      </trkpt>
      <trkpt lat="56.892411034221" lon="14.864110928942">
        <ele>190.6</ele>
        <time>2020-03-09T17:54:44Z</time>
      </trkpt>
      <trkpt lat="56.892374908232" lon="14.864303712642">
        <ele>191.2</ele>
        <time>2020-03-09T17:54:48Z</time>
      </trkpt>
      <trkpt lat="56.892304835548" lon="14.864625409964">
        <ele>191.2</ele>
        <time>2020-03-09T17:54:54Z</time>
      </trkpt>
      <trkpt lat="56.892207521689" lon="14.86495263934">
        <ele>191.4</ele>
        <time>2020-03-09T17:55:01Z</time>
      </trkpt>
      <trkpt lat="56.892051953625" lon="14.865164785229">
        <ele>191.4</ele>
        <time>2020-03-09T17:55:08Z</time>
      </trkpt>
      <trkpt lat="56.891968637539" lon="14.865476340452">
        <ele>192</ele>
        <time>2020-03-09T17:55:14Z</time>
      </trkpt>
      <trkpt lat="56.891962015838" lon="14.865522105626">
        <ele>192.4</ele>
        <time>2020-03-09T17:55:15Z</time>
      </trkpt>
      <trkpt lat="56.891880040856" lon="14.865834247582">
        <ele>192.6</ele>
        <time>2020-03-09T17:55:22Z</time>
      </trkpt>
      <trkpt lat="56.891780547703" lon="14.866134068145">
        <ele>193.2</ele>
        <time>2020-03-09T17:55:29Z</time>
      </trkpt>
      <trkpt lat="56.891828324533" lon="14.866488287239">
        <ele>193.4</ele>
        <time>2020-03-09T17:55:35Z</time>
      </trkpt>
      <trkpt lat="56.891898481036" lon="14.866810655113">
        <ele>193.2</ele>
        <time>2020-03-09T17:55:41Z</time>
      </trkpt>
      <trkpt lat="56.891987999728" lon="14.867141740163">
        <ele>193</ele>
        <time>2020-03-09T17:55:48Z</time>
      </trkpt>
      <trkpt lat="56.892082379922" lon="14.867428484962">
        <ele>192.4</ele>
        <time>2020-03-09T17:55:55Z</time>
      </trkpt>
      <trkpt lat="56.892177598306" lon="14.867730568638">
        <ele>192.2</ele>
        <time>2020-03-09T17:56:02Z</time>
      </trkpt>
      <trkpt lat="56.892247084257" lon="14.868083949542">
        <ele>192.4</ele>
        <time>2020-03-09T17:56:09Z</time>
      </trkpt>
      <trkpt lat="56.89231975533" lon="14.868404473398">
        <ele>192</ele>
        <time>2020-03-09T17:56:15Z</time>
      </trkpt>
      <trkpt lat="56.892376500793" lon="14.868771516799">
        <ele>192</ele>
        <time>2020-03-09T17:56:22Z</time>
      </trkpt>
      <trkpt lat="56.892501055827" lon="14.869087598248">
        <ele>191.4</ele>
        <time>2020-03-09T17:56:29Z</time>
      </trkpt>
      <trkpt lat="56.892586383569" lon="14.869424047714">
        <ele>190.8</ele>
        <time>2020-03-09T17:56:35Z</time>
      </trkpt>
      <trkpt lat="56.892645392145" lon="14.869772734754">
        <ele>190.6</ele>
        <time>2020-03-09T17:56:42Z</time>
      </trkpt>
      <trkpt lat="56.892657294443" lon="14.869971050508">
        <ele>190.2</ele>
        <time>2020-03-09T17:56:46Z</time>
      </trkpt>
      <trkpt lat="56.892696018821" lon="14.870290149441">
        <ele>190.2</ele>
        <time>2020-03-09T17:56:52Z</time>
      </trkpt>
      <trkpt lat="56.89286290245" lon="14.870407915136">
        <ele>190.2</ele>
        <time>2020-03-09T17:56:58Z</time>
      </trkpt>
      <trkpt lat="56.893067085534" lon="14.870406993127">
        <ele>189.8</ele>
        <time>2020-03-09T17:57:04Z</time>
      </trkpt>
      <trkpt lat="56.89324595528" lon="14.87030029154">
        <ele>190.2</ele>
        <time>2020-03-09T17:57:10Z</time>
      </trkpt>
      <trkpt lat="56.893431111451" lon="14.87019970874">
        <ele>190</ele>
        <time>2020-03-09T17:57:16Z</time>
      </trkpt>
      <trkpt lat="56.893544770015" lon="14.870165007674">
        <ele>190.4</ele>
        <time>2020-03-09T17:57:20Z</time>
      </trkpt>
      <trkpt lat="56.893605203514" lon="14.870467007531">
        <ele>190</ele>
        <time>2020-03-09T17:57:26Z</time>
      </trkpt>
      <trkpt lat="56.893676868759" lon="14.870793650174">
        <ele>190</ele>
        <time>2020-03-09T17:57:32Z</time>
      </trkpt>
      <trkpt lat="56.893782815975" lon="14.871110737451">
        <ele>189.6</ele>
        <time>2020-03-09T17:57:38Z</time>
      </trkpt>
      <trkpt lat="56.893815673023" lon="14.871216014115">
        <ele>189.2</ele>
        <time>2020-03-09T17:57:40Z</time>
      </trkpt>
      <trkpt lat="56.893929750682" lon="14.871522791655">
        <ele>188.4</ele>
        <time>2020-03-09T17:57:46Z</time>
      </trkpt>
      <trkpt lat="56.893939389867" lon="14.871567131906">
        <ele>188</ele>
        <time>2020-03-09T17:57:47Z</time>
      </trkpt>
      <trkpt lat="56.894010216922" lon="14.871924536122">
        <ele>187.2</ele>
        <time>2020-03-09T17:57:54Z</time>
      </trkpt>
      <trkpt lat="56.894019185555" lon="14.871984466707">
        <ele>186.8</ele>
        <time>2020-03-09T17:57:55Z</time>
      </trkpt>
      <trkpt lat="56.894061011236" lon="14.872356455429">
        <ele>186</ele>
        <time>2020-03-09T17:58:02Z</time>
      </trkpt>
      <trkpt lat="56.89406654329" lon="14.872466928871">
        <ele>185.6</ele>
        <time>2020-03-09T17:58:04Z</time>
      </trkpt>
      <trkpt lat="56.894104680935" lon="14.872787536546">
        <ele>185.6</ele>
        <time>2020-03-09T17:58:10Z</time>
      </trkpt>
      <trkpt lat="56.894169473022" lon="14.873109401506">
        <ele>185</ele>
        <time>2020-03-09T17:58:16Z</time>
      </trkpt>
      <trkpt lat="56.8942836345" lon="14.873333449693">
        <ele>184.6</ele>
        <time>2020-03-09T17:58:21Z</time>
      </trkpt>
      <trkpt lat="56.894442806781" lon="14.873570322187">
        <ele>184</ele>
        <time>2020-03-09T17:58:27Z</time>
      </trkpt>
      <trkpt lat="56.894518411519" lon="14.873703929673">
        <ele>183.6</ele>
        <time>2020-03-09T17:58:31Z</time>
      </trkpt>
      <trkpt lat="56.894658137792" lon="14.873966283143">
        <ele>182.6</ele>
        <time>2020-03-09T17:58:38Z</time>
      </trkpt>
      <trkpt lat="56.894681690931" lon="14.874005594254">
        <ele>182.2</ele>
        <time>2020-03-09T17:58:39Z</time>
      </trkpt>
      <trkpt lat="56.894816974797" lon="14.874223523654">
        <ele>181</ele>
        <time>2020-03-09T17:58:45Z</time>
      </trkpt>
      <trkpt lat="56.894959970011" lon="14.874479758337">
        <ele>180.6</ele>
        <time>2020-03-09T17:58:52Z</time>
      </trkpt>
      <trkpt lat="56.895068767073" lon="14.874645719957">
        <ele>180</ele>
        <time>2020-03-09T17:58:57Z</time>
      </trkpt>
      <trkpt lat="56.895231124476" lon="14.87487261799">
        <ele>179.2</ele>
        <time>2020-03-09T17:59:03Z</time>
      </trkpt>
      <trkpt lat="56.895288121396" lon="14.874943780321">
        <ele>178.8</ele>
        <time>2020-03-09T17:59:05Z</time>
      </trkpt>
      <trkpt lat="56.89543530756" lon="14.875138743315">
        <ele>178.4</ele>
        <time>2020-03-09T17:59:10Z</time>
      </trkpt>
      <trkpt lat="56.895613255297" lon="14.875316188138">
        <ele>178.2</ele>
        <time>2020-03-09T17:59:15Z</time>
      </trkpt>
      <trkpt lat="56.895820120589" lon="14.875429008512">
        <ele>178</ele>
        <time>2020-03-09T17:59:20Z</time>
      </trkpt>
      <trkpt lat="56.895893210757" lon="14.875456752601">
        <ele>177.8</ele>
        <time>2020-03-09T17:59:22Z</time>
      </trkpt>
      <trkpt lat="56.896098651126" lon="14.875527998751">
        <ele>177.4</ele>
        <time>2020-03-09T17:59:28Z</time>
      </trkpt>
      <trkpt lat="56.896294787586" lon="14.875563705645">
        <ele>177.4</ele>
        <time>2020-03-09T17:59:34Z</time>
      </trkpt>
      <trkpt lat="56.896489163847" lon="14.875597819978">
        <ele>177.4</ele>
        <time>2020-03-09T17:59:40Z</time>
      </trkpt>
      <trkpt lat="56.896671470172" lon="14.875508301286">
        <ele>177</ele>
        <time>2020-03-09T17:59:47Z</time>
      </trkpt>
      <trkpt lat="56.896828714616" lon="14.875324486219">
        <ele>177.2</ele>
        <time>2020-03-09T17:59:53Z</time>
      </trkpt>
      <trkpt lat="56.896966513052" lon="14.875088954829">
        <ele>177</ele>
        <time>2020-03-09T17:59:59Z</time>
      </trkpt>
      <trkpt lat="56.897010518027" lon="14.875016702851">
        <ele>176.8</ele>
        <time>2020-03-09T18:00:01Z</time>
      </trkpt>
      <trkpt lat="56.89715108249" lon="14.874793241397">
        <ele>177</ele>
        <time>2020-03-09T18:00:07Z</time>
      </trkpt>
      <trkpt lat="56.897304974174" lon="14.874620993352">
        <ele>177.2</ele>
        <time>2020-03-09T18:00:13Z</time>
      </trkpt>
      <trkpt lat="56.897468505043" lon="14.874461653433">
        <ele>177</ele>
        <time>2020-03-09T18:00:19Z</time>
      </trkpt>
      <trkpt lat="56.897625078935" lon="14.874258140901">
        <ele>177.2</ele>
        <time>2020-03-09T18:00:25Z</time>
      </trkpt>
      <trkpt lat="56.897792800754" lon="14.87406795559">
        <ele>177.2</ele>
        <time>2020-03-09T18:00:32Z</time>
      </trkpt>
      <trkpt lat="56.897975107079" lon="14.873905262911">
        <ele>177.4</ele>
        <time>2020-03-09T18:00:39Z</time>
      </trkpt>
      <trkpt lat="56.898144002364" lon="14.873750700675">
        <ele>177.4</ele>
        <time>2020-03-09T18:00:46Z</time>
      </trkpt>
      <trkpt lat="56.898311808002" lon="14.87359354005">
        <ele>177.8</ele>
        <time>2020-03-09T18:00:53Z</time>
      </trkpt>
      <trkpt lat="56.898484894237" lon="14.873447443533">
        <ele>177.6</ele>
        <time>2020-03-09T18:01:00Z</time>
      </trkpt>
      <trkpt lat="56.898658399567" lon="14.873287768338">
        <ele>178.2</ele>
        <time>2020-03-09T18:01:07Z</time>
      </trkpt>
      <trkpt lat="56.898814554364" lon="14.873139157251">
        <ele>178.8</ele>
        <time>2020-03-09T18:01:13Z</time>
      </trkpt>
      <trkpt lat="56.898978085233" lon="14.872954168718">
        <ele>179.2</ele>
        <time>2020-03-09T18:01:19Z</time>
      </trkpt>
      <trkpt lat="56.899149662726" lon="14.87280228869">
        <ele>179</ele>
        <time>2020-03-09T18:01:25Z</time>
      </trkpt>
      <trkpt lat="56.899320150572" lon="14.87264806173">
        <ele>179.2</ele>
        <time>2020-03-09T18:01:31Z</time>
      </trkpt>
      <trkpt lat="56.899492482436" lon="14.872516968814">
        <ele>179.4</ele>
        <time>2020-03-09T18:01:37Z</time>
      </trkpt>
      <trkpt lat="56.899665233395" lon="14.872413536168">
        <ele>179.8</ele>
        <time>2020-03-09T18:01:43Z</time>
      </trkpt>
      <trkpt lat="56.899752488974" lon="14.872359472913">
        <ele>179.8</ele>
        <time>2020-03-09T18:01:46Z</time>
      </trkpt>
      <trkpt lat="56.899951810556" lon="14.872277749388">
        <ele>179.6</ele>
        <time>2020-03-09T18:01:53Z</time>
      </trkpt>
      <trkpt lat="56.900142498781" lon="14.872241707218">
        <ele>179.4</ele>
        <time>2020-03-09T18:01:59Z</time>
      </trkpt>
      <trkpt lat="56.900338299965" lon="14.872157888218">
        <ele>179.6</ele>
        <time>2020-03-09T18:02:05Z</time>
      </trkpt>
      <trkpt lat="56.900516247702" lon="14.872046157491">
        <ele>179.4</ele>
        <time>2020-03-09T18:02:11Z</time>
      </trkpt>
      <trkpt lat="56.900692267602" lon="14.871885727925">
        <ele>179.4</ele>
        <time>2020-03-09T18:02:17Z</time>
      </trkpt>
      <trkpt lat="56.900881279447" lon="14.871769973886">
        <ele>179.6</ele>
        <time>2020-03-09T18:02:23Z</time>
      </trkpt>
      <trkpt lat="56.901073224957" lon="14.871702164315">
        <ele>179.6</ele>
        <time>2020-03-09T18:02:29Z</time>
      </trkpt>
      <trkpt lat="56.901262069164" lon="14.871578615109">
        <ele>180</ele>
        <time>2020-03-09T18:02:35Z</time>
      </trkpt>
      <trkpt lat="56.901452086837" lon="14.871494796109">
        <ele>180.2</ele>
        <time>2020-03-09T18:02:42Z</time>
      </trkpt>
      <trkpt lat="56.901650151134" lon="14.871386921056">
        <ele>180.2</ele>
        <time>2020-03-09T18:02:49Z</time>
      </trkpt>
      <trkpt lat="56.901843186291" lon="14.87125498995">
        <ele>180.8</ele>
        <time>2020-03-09T18:02:56Z</time>
      </trkpt>
      <trkpt lat="56.902016356345" lon="14.871118029704">
        <ele>181.2</ele>
        <time>2020-03-09T18:03:02Z</time>
      </trkpt>
      <trkpt lat="56.902192208607" lon="14.871024320062">
        <ele>181.2</ele>
        <time>2020-03-09T18:03:08Z</time>
      </trkpt>
      <trkpt lat="56.902381723366" lon="14.871098416058">
        <ele>180.8</ele>
        <time>2020-03-09T18:03:14Z</time>
      </trkpt>
      <trkpt lat="56.902554558144" lon="14.871234286657">
        <ele>180</ele>
        <time>2020-03-09T18:03:19Z</time>
      </trkpt>
      <trkpt lat="56.902590516495" lon="14.871261444013">
        <ele>179.8</ele>
        <time>2020-03-09T18:03:20Z</time>
      </trkpt>
      <trkpt lat="56.902775840304" lon="14.871421622122">
        <ele>178.8</ele>
        <time>2020-03-09T18:03:26Z</time>
      </trkpt>
      <trkpt lat="56.902946579607" lon="14.871602587343">
        <ele>178</ele>
        <time>2020-03-09T18:03:32Z</time>
      </trkpt>
      <trkpt lat="56.903007348382" lon="14.871647514327">
        <ele>177.4</ele>
        <time>2020-03-09T18:03:34Z</time>
      </trkpt>
      <trkpt lat="56.903103824051" lon="14.871666289783">
        <ele>176.4</ele>
        <time>2020-03-09T18:03:37Z</time>
      </trkpt>
      <trkpt lat="56.903209184534" lon="14.871592529063">
        <ele>175.2</ele>
        <time>2020-03-09T18:03:41Z</time>
      </trkpt>
      <trkpt lat="56.903403309338" lon="14.871597055289">
        <ele>174</ele>
        <time>2020-03-09T18:03:48Z</time>
      </trkpt>
      <trkpt lat="56.903574635374" lon="14.871623625912">
        <ele>173</ele>
        <time>2020-03-09T18:03:55Z</time>
      </trkpt>
      <trkpt lat="56.903755852052" lon="14.871603090257">
        <ele>172.4</ele>
        <time>2020-03-09T18:04:02Z</time>
      </trkpt>
      <trkpt lat="56.903859787612" lon="14.871573585969">
        <ele>171.8</ele>
        <time>2020-03-09T18:04:05Z</time>
      </trkpt>
      <trkpt lat="56.904057013719" lon="14.87144190632">
        <ele>171.4</ele>
        <time>2020-03-09T18:04:11Z</time>
      </trkpt>
      <trkpt lat="56.904227669203" lon="14.871294552518">
        <ele>171.6</ele>
        <time>2020-03-09T18:04:17Z</time>
      </trkpt>
      <trkpt lat="56.904388098769" lon="14.871121298645">
        <ele>171.4</ele>
        <time>2020-03-09T18:04:23Z</time>
      </trkpt>
      <trkpt lat="56.904442748757" lon="14.87106974996">
        <ele>171.6</ele>
        <time>2020-03-09T18:04:25Z</time>
      </trkpt>
      <trkpt lat="56.904592700948" lon="14.87083338038">
        <ele>171.2</ele>
        <time>2020-03-09T18:04:31Z</time>
      </trkpt>
      <trkpt lat="56.904776683653" lon="14.870742269127">
        <ele>170.8</ele>
        <time>2020-03-09T18:04:37Z</time>
      </trkpt>
      <trkpt lat="56.904955637218" lon="14.870610002745">
        <ele>170.8</ele>
        <time>2020-03-09T18:04:43Z</time>
      </trkpt>
      <trkpt lat="56.905126963254" lon="14.870484022788">
        <ele>170.4</ele>
        <time>2020-03-09T18:04:49Z</time>
      </trkpt>
      <trkpt lat="56.905292673417" lon="14.870340357022">
        <ele>170.6</ele>
        <time>2020-03-09T18:04:56Z</time>
      </trkpt>
      <trkpt lat="56.905447235653" lon="14.870083954701">
        <ele>171.2</ele>
        <time>2020-03-09T18:05:02Z</time>
      </trkpt>
      <trkpt lat="56.905545639159" lon="14.869843729447">
        <ele>171.8</ele>
        <time>2020-03-09T18:05:07Z</time>
      </trkpt>
      <trkpt lat="56.905642198647" lon="14.869513734044">
        <ele>173</ele>
        <time>2020-03-09T18:05:14Z</time>
      </trkpt>
      <trkpt lat="56.905688802011" lon="14.869178960958">
        <ele>174</ele>
        <time>2020-03-09T18:05:20Z</time>
      </trkpt>
      <trkpt lat="56.905764574387" lon="14.868840583655">
        <ele>175</ele>
        <time>2020-03-09T18:05:27Z</time>
      </trkpt>
      <trkpt lat="56.905786367327" lon="14.868483347077">
        <ele>175.8</ele>
        <time>2020-03-09T18:05:34Z</time>
      </trkpt>
      <trkpt lat="56.905722832525" lon="14.86829534106">
        <ele>176.2</ele>
        <time>2020-03-09T18:05:38Z</time>
      </trkpt>
      <trkpt lat="56.905636331317" lon="14.868033574323">
        <ele>177.2</ele>
        <time>2020-03-09T18:05:44Z</time>
      </trkpt>
      <trkpt lat="56.90554555534" lon="14.867781614409">
        <ele>178.4</ele>
        <time>2020-03-09T18:05:49Z</time>
      </trkpt>
      <trkpt lat="56.905424688342" lon="14.86748397314">
        <ele>179.2</ele>
        <time>2020-03-09T18:05:55Z</time>
      </trkpt>
      <trkpt lat="56.90539049019" lon="14.867387748928">
        <ele>179.6</ele>
        <time>2020-03-09T18:05:57Z</time>
      </trkpt>
      <trkpt lat="56.905290577942" lon="14.867072338031">
        <ele>180.4</ele>
        <time>2020-03-09T18:06:04Z</time>
      </trkpt>
      <trkpt lat="56.905256547428" lon="14.86699195561">
        <ele>180.8</ele>
        <time>2020-03-09T18:06:06Z</time>
      </trkpt>
      <trkpt lat="56.905160323216" lon="14.866706049001">
        <ele>181.6</ele>
        <time>2020-03-09T18:06:13Z</time>
      </trkpt>
      <trkpt lat="56.905147079814" lon="14.866664893872">
        <ele>182</ele>
        <time>2020-03-09T18:06:14Z</time>
      </trkpt>
      <trkpt lat="56.905029984671" lon="14.866392817398">
        <ele>182.6</ele>
        <time>2020-03-09T18:06:21Z</time>
      </trkpt>
      <trkpt lat="56.904968545344" lon="14.866279745567">
        <ele>183.2</ele>
        <time>2020-03-09T18:06:24Z</time>
      </trkpt>
      <trkpt lat="56.904857820445" lon="14.865998281365">
        <ele>183.6</ele>
        <time>2020-03-09T18:06:32Z</time>
      </trkpt>
      <trkpt lat="56.904827561786" lon="14.865655126379">
        <ele>184</ele>
        <time>2020-03-09T18:06:39Z</time>
      </trkpt>
      <trkpt lat="56.904811636176" lon="14.865359496766">
        <ele>184.2</ele>
        <time>2020-03-09T18:06:44Z</time>
      </trkpt>
      <trkpt lat="56.904789256503" lon="14.864997817781">
        <ele>183.8</ele>
        <time>2020-03-09T18:06:51Z</time>
      </trkpt>
      <trkpt lat="56.904655062284" lon="14.864741750736">
        <ele>185</ele>
        <time>2020-03-09T18:06:58Z</time>
      </trkpt>
      <trkpt lat="56.904548360697" lon="14.864743427116">
        <ele>185.2</ele>
        <time>2020-03-09T18:07:02Z</time>
      </trkpt>
      <trkpt lat="56.904412490098" lon="14.864541423326">
        <ele>185.4</ele>
        <time>2020-03-09T18:07:08Z</time>
      </trkpt>
      <trkpt lat="56.904312913126" lon="14.86425861802">
        <ele>185.8</ele>
        <time>2020-03-09T18:07:14Z</time>
      </trkpt>
      <trkpt lat="56.904219119665" lon="14.863969861565">
        <ele>186</ele>
        <time>2020-03-09T18:07:20Z</time>
      </trkpt>
      <trkpt lat="56.904126415851" lon="14.863644811483">
        <ele>186.2</ele>
        <time>2020-03-09T18:07:27Z</time>
      </trkpt>
      <trkpt lat="56.904093726441" lon="14.863461164054">
        <ele>186.4</ele>
        <time>2020-03-09T18:07:31Z</time>
      </trkpt>
      <trkpt lat="56.904021977377" lon="14.863134940506">
        <ele>185.8</ele>
        <time>2020-03-09T18:07:37Z</time>
      </trkpt>
      <trkpt lat="56.903909659917" lon="14.862815171021">
        <ele>185.6</ele>
        <time>2020-03-09T18:07:44Z</time>
      </trkpt>
      <trkpt lat="56.903883256932" lon="14.862716851334">
        <ele>185.2</ele>
        <time>2020-03-09T18:07:46Z</time>
      </trkpt>
      <trkpt lat="56.903799521751" lon="14.862387023569">
        <ele>184.6</ele>
        <time>2020-03-09T18:07:52Z</time>
      </trkpt>
      <trkpt lat="56.903764317771" lon="14.862222235415">
        <ele>184.2</ele>
        <time>2020-03-09T18:07:55Z</time>
      </trkpt>
      <trkpt lat="56.903667506826" lon="14.861920822291">
        <ele>183.6</ele>
        <time>2020-03-09T18:08:01Z</time>
      </trkpt>
      <trkpt lat="56.903629955914" lon="14.861825100993">
        <ele>183.2</ele>
        <time>2020-03-09T18:08:03Z</time>
      </trkpt>
      <trkpt lat="56.903542951792" lon="14.861536512176">
        <ele>182.4</ele>
        <time>2020-03-09T18:08:09Z</time>
      </trkpt>
      <trkpt lat="56.903480506637" lon="14.861317744586">
        <ele>182</ele>
        <time>2020-03-09T18:08:13Z</time>
      </trkpt>
      <trkpt lat="56.903396603818" lon="14.861020354774">
        <ele>181.2</ele>
        <time>2020-03-09T18:08:19Z</time>
      </trkpt>
      <trkpt lat="56.90335704125" lon="14.860839724829">
        <ele>180.8</ele>
        <time>2020-03-09T18:08:22Z</time>
      </trkpt>
      <trkpt lat="56.903295518104" lon="14.860471507962">
        <ele>180.2</ele>
        <time>2020-03-09T18:08:28Z</time>
      </trkpt>
      <trkpt lat="56.903277748476" lon="14.860260870815">
        <ele>179.8</ele>
        <time>2020-03-09T18:08:32Z</time>
      </trkpt>
      <trkpt lat="56.903245310523" lon="14.859883685315">
        <ele>179.4</ele>
        <time>2020-03-09T18:08:39Z</time>
      </trkpt>
      <trkpt lat="56.903193091286" lon="14.859563580554">
        <ele>179</ele>
        <time>2020-03-09T18:08:45Z</time>
      </trkpt>
      <trkpt lat="56.903154869822" lon="14.859212127487">
        <ele>179.6</ele>
        <time>2020-03-09T18:08:53Z</time>
      </trkpt>
      <trkpt lat="56.903138357479" lon="14.85884139605">
        <ele>180.6</ele>
        <time>2020-03-09T18:09:00Z</time>
      </trkpt>
      <trkpt lat="56.903133998891" lon="14.85877936999">
        <ele>181</ele>
        <time>2020-03-09T18:09:01Z</time>
      </trkpt>
      <trkpt lat="56.90322293085" lon="14.858487847508">
        <ele>181.8</ele>
        <time>2020-03-09T18:09:07Z</time>
      </trkpt>
      <trkpt lat="56.90339308342" lon="14.858359101524">
        <ele>181.6</ele>
        <time>2020-03-09T18:09:13Z</time>
      </trkpt>
      <trkpt lat="56.903587962595" lon="14.858263715502">
        <ele>181.4</ele>
        <time>2020-03-09T18:09:20Z</time>
      </trkpt>
      <trkpt lat="56.903768676359" lon="14.858164725263">
        <ele>180.8</ele>
        <time>2020-03-09T18:09:26Z</time>
      </trkpt>
      <trkpt lat="56.903948049019" lon="14.858035224908">
        <ele>180.2</ele>
        <time>2020-03-09T18:09:32Z</time>
      </trkpt>
      <trkpt lat="56.904111831345" lon="14.857859121189">
        <ele>180</ele>
        <time>2020-03-09T18:09:38Z</time>
      </trkpt>
      <trkpt lat="56.904138318149" lon="14.857825845046">
        <ele>180</ele>
        <time>2020-03-09T18:09:39Z</time>
      </trkpt>
      <trkpt lat="56.904316433524" lon="14.857624930903">
        <ele>179.2</ele>
        <time>2020-03-09T18:09:45Z</time>
      </trkpt>
      <trkpt lat="56.904454064322" lon="14.857399793069">
        <ele>179.2</ele>
        <time>2020-03-09T18:09:51Z</time>
      </trkpt>
      <trkpt lat="56.904615248259" lon="14.857181276936">
        <ele>178.8</ele>
        <time>2020-03-09T18:09:58Z</time>
      </trkpt>
      <trkpt lat="56.904787328666" lon="14.857040209559">
        <ele>178.2</ele>
        <time>2020-03-09T18:10:03Z</time>
      </trkpt>
      <trkpt lat="56.904917164297" lon="14.856955384731">
        <ele>177.8</ele>
        <time>2020-03-09T18:10:07Z</time>
      </trkpt>
      <trkpt lat="56.905100895545" lon="14.856834266276">
        <ele>176.8</ele>
        <time>2020-03-09T18:10:13Z</time>
      </trkpt>
      <trkpt lat="56.905179853043" lon="14.856764612687">
        <ele>176.6</ele>
        <time>2020-03-09T18:10:16Z</time>
      </trkpt>
      <trkpt lat="56.905371044182" lon="14.856652127589">
        <ele>176.2</ele>
        <time>2020-03-09T18:10:23Z</time>
      </trkpt>
      <trkpt lat="56.905529797368" lon="14.856595382126">
        <ele>175.4</ele>
        <time>2020-03-09T18:10:29Z</time>
      </trkpt>
      <trkpt lat="56.90570732601" lon="14.856494380231">
        <ele>174.8</ele>
        <time>2020-03-09T18:10:35Z</time>
      </trkpt>
      <trkpt lat="56.905796760883" lon="14.856399497123">
        <ele>174.2</ele>
        <time>2020-03-09T18:10:38Z</time>
      </trkpt>
      <trkpt lat="56.905906144678" lon="14.856123229699">
        <ele>173.4</ele>
        <time>2020-03-09T18:10:44Z</time>
      </trkpt>
      <trkpt lat="56.905945455789" lon="14.855962800133">
        <ele>173.2</ele>
        <time>2020-03-09T18:10:47Z</time>
      </trkpt>
      <trkpt lat="56.905995495732" lon="14.855639091155">
        <ele>172.2</ele>
        <time>2020-03-09T18:10:53Z</time>
      </trkpt>
      <trkpt lat="56.905996585379" lon="14.855591398144">
        <ele>172.2</ele>
        <time>2020-03-09T18:10:54Z</time>
      </trkpt>
      <trkpt lat="56.905916370596" lon="14.855295936169">
        <ele>172.2</ele>
        <time>2020-03-09T18:11:00Z</time>
      </trkpt>
      <trkpt lat="56.905736075927" lon="14.855153443869">
        <ele>172.2</ele>
        <time>2020-03-09T18:11:08Z</time>
      </trkpt>
      <trkpt lat="56.905535161784" lon="14.855128884902">
        <ele>173.4</ele>
        <time>2020-03-09T18:11:17Z</time>
      </trkpt>
      <trkpt lat="56.905516134871" lon="14.855122430839">
        <ele>173.4</ele>
        <time>2020-03-09T18:11:18Z</time>
      </trkpt>
      <trkpt lat="56.905322512981" lon="14.855021848039">
        <ele>173.8</ele>
        <time>2020-03-09T18:11:25Z</time>
      </trkpt>
      <trkpt lat="56.905117826983" lon="14.854986644059">
        <ele>173.6</ele>
        <time>2020-03-09T18:11:31Z</time>
      </trkpt>
      <trkpt lat="56.905009784292" lon="14.854995277416">
        <ele>173.4</ele>
        <time>2020-03-09T18:11:34Z</time>
      </trkpt>
      <trkpt lat="56.904829321985" lon="14.85499578033">
        <ele>173.2</ele>
        <time>2020-03-09T18:11:40Z</time>
      </trkpt>
      <trkpt lat="56.904629497489" lon="14.854953116459">
        <ele>173.2</ele>
        <time>2020-03-09T18:11:47Z</time>
      </trkpt>
      <trkpt lat="56.904456075978" lon="14.854771396867">
        <ele>173.4</ele>
        <time>2020-03-09T18:11:53Z</time>
      </trkpt>
      <trkpt lat="56.904444508956" lon="14.854449112812">
        <ele>174.2</ele>
        <time>2020-03-09T18:12:00Z</time>
      </trkpt>
      <trkpt lat="56.904537296589" lon="14.854134456286">
        <ele>173.4</ele>
        <time>2020-03-09T18:12:06Z</time>
      </trkpt>
      <trkpt lat="56.904598735916" lon="14.853858440319">
        <ele>172.2</ele>
        <time>2020-03-09T18:12:11Z</time>
      </trkpt>
      <trkpt lat="56.90464450109" lon="14.853502461026">
        <ele>171.8</ele>
        <time>2020-03-09T18:12:17Z</time>
      </trkpt>
      <trkpt lat="56.904639807226" lon="14.853378157449">
        <ele>170.8</ele>
        <time>2020-03-09T18:12:19Z</time>
      </trkpt>
      <trkpt lat="56.904603765056" lon="14.853173806727">
        <ele>169.6</ele>
        <time>2020-03-09T18:12:22Z</time>
      </trkpt>
      <trkpt lat="56.904532518906" lon="14.852845571523">
        <ele>168.4</ele>
        <time>2020-03-09T18:12:27Z</time>
      </trkpt>
      <trkpt lat="56.904502763161" lon="14.852480288321">
        <ele>168</ele>
        <time>2020-03-09T18:12:33Z</time>
      </trkpt>
      <trkpt lat="56.904511480337" lon="14.852380208435">
        <ele>167.4</ele>
        <time>2020-03-09T18:12:35Z</time>
      </trkpt>
      <trkpt lat="56.904536877494" lon="14.852159093913">
        <ele>166.4</ele>
        <time>2020-03-09T18:12:39Z</time>
      </trkpt>
      <trkpt lat="56.904514162545" lon="14.851997909976">
        <ele>165.2</ele>
        <time>2020-03-09T18:12:42Z</time>
      </trkpt>
      <trkpt lat="56.904423135111" lon="14.851670177686">
        <ele>164.6</ele>
        <time>2020-03-09T18:12:50Z</time>
      </trkpt>
      <trkpt lat="56.904391786805" lon="14.851331884202">
        <ele>164.8</ele>
        <time>2020-03-09T18:12:57Z</time>
      </trkpt>
      <trkpt lat="56.904391116253" lon="14.850953944331">
        <ele>165</ele>
        <time>2020-03-09T18:13:03Z</time>
      </trkpt>
      <trkpt lat="56.904379465412" lon="14.850623613652">
        <ele>165</ele>
        <time>2020-03-09T18:13:09Z</time>
      </trkpt>
      <trkpt lat="56.904308973633" lon="14.850288672928">
        <ele>164.6</ele>
        <time>2020-03-09T18:13:15Z</time>
      </trkpt>
      <trkpt lat="56.904247282849" lon="14.850071916994">
        <ele>164.2</ele>
        <time>2020-03-09T18:13:19Z</time>
      </trkpt>
      <trkpt lat="56.904129600973" lon="14.849767318748">
        <ele>163.4</ele>
        <time>2020-03-09T18:13:25Z</time>
      </trkpt>
      <trkpt lat="56.904058857737" lon="14.849469761298">
        <ele>163.2</ele>
        <time>2020-03-09T18:13:30Z</time>
      </trkpt>
      <trkpt lat="56.903972440348" lon="14.849177819721">
        <ele>163.4</ele>
        <time>2020-03-09T18:13:35Z</time>
      </trkpt>
      <trkpt lat="56.903811591687" lon="14.84898260527">
        <ele>163.4</ele>
        <time>2020-03-09T18:13:41Z</time>
      </trkpt>
      <trkpt lat="56.903692233431" lon="14.848695189919">
        <ele>163.4</ele>
        <time>2020-03-09T18:13:48Z</time>
      </trkpt>
      <trkpt lat="56.90372500666" lon="14.848338540074">
        <ele>163.8</ele>
        <time>2020-03-09T18:13:55Z</time>
      </trkpt>
      <trkpt lat="56.903813603343" lon="14.84803880333">
        <ele>164</ele>
        <time>2020-03-09T18:14:01Z</time>
      </trkpt>
      <trkpt lat="56.903843359088" lon="14.847866471466">
        <ele>164.2</ele>
        <time>2020-03-09T18:14:04Z</time>
      </trkpt>
      <trkpt lat="56.90394545063" lon="14.84757696064">
        <ele>164.8</ele>
        <time>2020-03-09T18:14:10Z</time>
      </trkpt>
      <trkpt lat="56.904134211018" lon="14.847489872699">
        <ele>164.2</ele>
        <time>2020-03-09T18:14:16Z</time>
      </trkpt>
      <trkpt lat="56.904347362735" lon="14.847490962346">
        <ele>163.8</ele>
        <time>2020-03-09T18:14:22Z</time>
      </trkpt>
      <trkpt lat="56.904466888629" lon="14.84739339703">
        <ele>164</ele>
        <time>2020-03-09T18:14:26Z</time>
      </trkpt>
      <trkpt lat="56.904468062095" lon="14.847055103546">
        <ele>164.6</ele>
        <time>2020-03-09T18:14:32Z</time>
      </trkpt>
      <trkpt lat="56.904439731273" lon="14.846713122026">
        <ele>164.8</ele>
        <time>2020-03-09T18:14:38Z</time>
      </trkpt>
      <trkpt lat="56.904361611965" lon="14.846406679762">
        <ele>164.4</ele>
        <time>2020-03-09T18:14:43Z</time>
      </trkpt>
      <trkpt lat="56.904259855699" lon="14.846100405136">
        <ele>164.6</ele>
        <time>2020-03-09T18:14:49Z</time>
      </trkpt>
      <trkpt lat="56.904182490762" lon="14.845771415561">
        <ele>164</ele>
        <time>2020-03-09T18:14:56Z</time>
      </trkpt>
      <trkpt lat="56.904040920471" lon="14.845566729563">
        <ele>163.8</ele>
        <time>2020-03-09T18:15:02Z</time>
      </trkpt>
      <trkpt lat="56.903926591355" lon="14.845303621722">
        <ele>164</ele>
        <time>2020-03-09T18:15:08Z</time>
      </trkpt>
      <trkpt lat="56.903760797373" lon="14.845144952355">
        <ele>165</ele>
        <time>2020-03-09T18:15:15Z</time>
      </trkpt>
      <trkpt lat="56.903555943737" lon="14.8451495624">
        <ele>165</ele>
        <time>2020-03-09T18:15:22Z</time>
      </trkpt>
      <trkpt lat="56.903377828362" lon="14.845047889953">
        <ele>164.8</ele>
        <time>2020-03-09T18:15:28Z</time>
      </trkpt>
      <trkpt lat="56.90319610877" lon="14.844986869721">
        <ele>164</ele>
        <time>2020-03-09T18:15:34Z</time>
      </trkpt>
      <trkpt lat="56.902992680057" lon="14.844932722647">
        <ele>164.6</ele>
        <time>2020-03-09T18:15:40Z</time>
      </trkpt>
      <trkpt lat="56.902813810311" lon="14.844956694881">
        <ele>164.6</ele>
        <time>2020-03-09T18:15:46Z</time>
      </trkpt>
      <trkpt lat="56.9026152431" lon="14.844935237217">
        <ele>164.4</ele>
        <time>2020-03-09T18:15:53Z</time>
      </trkpt>
      <trkpt lat="56.902435618983" lon="14.84496851336">
        <ele>164.8</ele>
        <time>2020-03-09T18:15:59Z</time>
      </trkpt>
      <trkpt lat="56.902337047839" lon="14.845208570976">
        <ele>165.2</ele>
        <time>2020-03-09T18:16:04Z</time>
      </trkpt>
      <trkpt lat="56.902234453383" lon="14.845510906109">
        <ele>165.4</ele>
        <time>2020-03-09T18:16:10Z</time>
      </trkpt>
      <trkpt lat="56.902111742367" lon="14.845761608738">
        <ele>165.6</ele>
        <time>2020-03-09T18:16:16Z</time>
      </trkpt>
      <trkpt lat="56.901931699155" lon="14.845919188458">
        <ele>166</ele>
        <time>2020-03-09T18:16:23Z</time>
      </trkpt>
      <trkpt lat="56.90174436369" lon="14.846080037119">
        <ele>165.6</ele>
        <time>2020-03-09T18:16:30Z</time>
      </trkpt>
      <trkpt lat="56.901583934124" lon="14.846288159696">
        <ele>165.4</ele>
        <time>2020-03-09T18:16:37Z</time>
      </trkpt>
      <trkpt lat="56.901456277787" lon="14.846582196748">
        <ele>166.4</ele>
        <time>2020-03-09T18:16:44Z</time>
      </trkpt>
      <trkpt lat="56.901334153504" lon="14.846850166091">
        <ele>166.6</ele>
        <time>2020-03-09T18:16:51Z</time>
      </trkpt>
      <trkpt lat="56.901253016712" lon="14.847153590871">
        <ele>166.6</ele>
        <time>2020-03-09T18:16:57Z</time>
      </trkpt>
      <trkpt lat="56.901131479162" lon="14.847409155002">
        <ele>165.4</ele>
        <time>2020-03-09T18:17:02Z</time>
      </trkpt>
      <trkpt lat="56.900958309108" lon="14.847510659811">
        <ele>164.8</ele>
        <time>2020-03-09T18:17:07Z</time>
      </trkpt>
      <trkpt lat="56.900756389137" lon="14.847461793334">
        <ele>165</ele>
        <time>2020-03-09T18:17:14Z</time>
      </trkpt>
      <trkpt lat="56.900546757818" lon="14.847488866871">
        <ele>165.6</ele>
        <time>2020-03-09T18:17:20Z</time>
      </trkpt>
      <trkpt lat="56.900360763457" lon="14.847514012571">
        <ele>165.6</ele>
        <time>2020-03-09T18:17:26Z</time>
      </trkpt>
      <trkpt lat="56.900173427992" lon="14.84748308336">
        <ele>165.4</ele>
        <time>2020-03-09T18:17:32Z</time>
      </trkpt>
      <trkpt lat="56.900015512996" lon="14.847275128421">
        <ele>164.8</ele>
        <time>2020-03-09T18:17:38Z</time>
      </trkpt>
      <trkpt lat="56.89987939094" lon="14.847060384143">
        <ele>164.6</ele>
        <time>2020-03-09T18:17:44Z</time>
      </trkpt>
      <trkpt lat="56.899728935835" lon="14.846884028967">
        <ele>165.6</ele>
        <time>2020-03-09T18:17:51Z</time>
      </trkpt>
      <trkpt lat="56.899565572604" lon="14.846710355999">
        <ele>166.2</ele>
        <time>2020-03-09T18:17:58Z</time>
      </trkpt>
      <trkpt lat="56.899371363981" lon="14.846630727949">
        <ele>166.2</ele>
        <time>2020-03-09T18:18:06Z</time>
      </trkpt>
      <trkpt lat="56.899178328824" lon="14.846583621671">
        <ele>166</ele>
        <time>2020-03-09T18:18:12Z</time>
      </trkpt>
      <trkpt lat="56.898971547351" lon="14.846546238397">
        <ele>165.6</ele>
        <time>2020-03-09T18:18:18Z</time>
      </trkpt>
      <trkpt lat="56.898791839415" lon="14.846506675829">
        <ele>166.4</ele>
        <time>2020-03-09T18:18:24Z</time>
      </trkpt>
      <trkpt lat="56.898762838041" lon="14.846503406888">
        <ele>166.4</ele>
        <time>2020-03-09T18:18:25Z</time>
      </trkpt>
      <trkpt lat="56.898566114848" lon="14.84636074695">
        <ele>167.4</ele>
        <time>2020-03-09T18:18:33Z</time>
      </trkpt>
      <trkpt lat="56.898484223685" lon="14.846304336763">
        <ele>167.6</ele>
        <time>2020-03-09T18:18:36Z</time>
      </trkpt>
      <trkpt lat="56.898299486609" lon="14.846205346524">
        <ele>167.6</ele>
        <time>2020-03-09T18:18:43Z</time>
      </trkpt>
      <trkpt lat="56.898118689026" lon="14.846159246074">
        <ele>167.6</ele>
        <time>2020-03-09T18:18:49Z</time>
      </trkpt>
      <trkpt lat="56.897943004402" lon="14.846077690187">
        <ele>168.4</ele>
        <time>2020-03-09T18:18:56Z</time>
      </trkpt>
      <trkpt lat="56.897911739915" lon="14.846071906676">
        <ele>168.6</ele>
        <time>2020-03-09T18:18:57Z</time>
      </trkpt>
      <trkpt lat="56.897734378911" lon="14.846008371874">
        <ele>169</ele>
        <time>2020-03-09T18:19:03Z</time>
      </trkpt>
      <trkpt lat="56.897542014306" lon="14.845896473509">
        <ele>168</ele>
        <time>2020-03-09T18:19:09Z</time>
      </trkpt>
      <trkpt lat="56.897475881115" lon="14.845840985331">
        <ele>167.6</ele>
        <time>2020-03-09T18:19:11Z</time>
      </trkpt>
      <trkpt lat="56.897283600329" lon="14.845713412813">
        <ele>167.2</ele>
        <time>2020-03-09T18:19:17Z</time>
      </trkpt>
      <trkpt lat="56.897113783035" lon="14.845581062612">
        <ele>167</ele>
        <time>2020-03-09T18:19:23Z</time>
      </trkpt>
      <trkpt lat="56.89691890386" lon="14.845478468156">
        <ele>167.4</ele>
        <time>2020-03-09T18:19:30Z</time>
      </trkpt>
      <trkpt lat="56.896743219236" lon="14.845247043897">
        <ele>167</ele>
        <time>2020-03-09T18:19:37Z</time>
      </trkpt>
      <trkpt lat="56.896568037526" lon="14.845084351218">
        <ele>167.2</ele>
        <time>2020-03-09T18:19:43Z</time>
      </trkpt>
      <trkpt lat="56.896426383416" lon="14.844809927812">
        <ele>166.6</ele>
        <time>2020-03-09T18:19:49Z</time>
      </trkpt>
      <trkpt lat="56.896284645487" lon="14.84456534397">
        <ele>166.8</ele>
        <time>2020-03-09T18:19:55Z</time>
      </trkpt>
      <trkpt lat="56.896132765459" lon="14.844346073466">
        <ele>167.4</ele>
        <time>2020-03-09T18:20:01Z</time>
      </trkpt>
      <trkpt lat="56.895993290643" lon="14.844123953116">
        <ele>166.8</ele>
        <time>2020-03-09T18:20:07Z</time>
      </trkpt>
      <trkpt lat="56.895865801944" lon="14.843871741745">
        <ele>167</ele>
        <time>2020-03-09T18:20:13Z</time>
      </trkpt>
      <trkpt lat="56.895765219144" lon="14.843576866503">
        <ele>168.4</ele>
        <time>2020-03-09T18:20:20Z</time>
      </trkpt>
      <trkpt lat="56.895747784792" lon="14.843549038595">
        <ele>168.8</ele>
        <time>2020-03-09T18:20:21Z</time>
      </trkpt>
      <trkpt lat="56.895659774842" lon="14.84334410114">
        <ele>169.8</ele>
        <time>2020-03-09T18:20:26Z</time>
      </trkpt>
      <trkpt lat="56.895561455155" lon="14.843039670532">
        <ele>169.4</ele>
        <time>2020-03-09T18:20:33Z</time>
      </trkpt>
      <trkpt lat="56.895525329166" lon="14.842758541606">
        <ele>168.8</ele>
        <time>2020-03-09T18:20:38Z</time>
      </trkpt>
      <trkpt lat="56.895460034165" lon="14.842422259778">
        <ele>168</ele>
        <time>2020-03-09T18:20:44Z</time>
      </trkpt>
      <trkpt lat="56.895360457193" lon="14.842102406474">
        <ele>168</ele>
        <time>2020-03-09T18:20:51Z</time>
      </trkpt>
      <trkpt lat="56.895292060889" lon="14.841747684466">
        <ele>167.6</ele>
        <time>2020-03-09T18:20:58Z</time>
      </trkpt>
      <trkpt lat="56.895243697326" lon="14.841405451489">
        <ele>167.2</ele>
        <time>2020-03-09T18:21:04Z</time>
      </trkpt>
      <trkpt lat="56.895177061221" lon="14.841078976484">
        <ele>167</ele>
        <time>2020-03-09T18:21:10Z</time>
      </trkpt>
      <trkpt lat="56.895153759539" lon="14.840737581697">
        <ele>167.8</ele>
        <time>2020-03-09T18:21:17Z</time>
      </trkpt>
      <trkpt lat="56.895142192517" lon="14.84037271759">
        <ele>167.8</ele>
        <time>2020-03-09T18:21:24Z</time>
      </trkpt>
      <trkpt lat="56.895096259705" lon="14.840042806006">
        <ele>168</ele>
        <time>2020-03-09T18:21:30Z</time>
      </trkpt>
      <trkpt lat="56.895116543903" lon="14.839903079733">
        <ele>168.2</ele>
        <time>2020-03-09T18:21:33Z</time>
      </trkpt>
      <trkpt lat="56.895192064822" lon="14.839810124462">
        <ele>168.4</ele>
        <time>2020-03-09T18:21:36Z</time>
      </trkpt>
      <trkpt lat="56.895349895999" lon="14.839757569949">
        <ele>168.6</ele>
        <time>2020-03-09T18:21:41Z</time>
      </trkpt>
      <trkpt lat="56.895564305001" lon="14.839739716502">
        <ele>168.4</ele>
        <time>2020-03-09T18:21:47Z</time>
      </trkpt>
      <trkpt lat="56.89575717252" lon="14.839724377625">
        <ele>168.2</ele>
        <time>2020-03-09T18:21:53Z</time>
      </trkpt>
      <trkpt lat="56.895947860745" lon="14.839710463671">
        <ele>167.8</ele>
        <time>2020-03-09T18:21:59Z</time>
      </trkpt>
      <trkpt lat="56.896127568681" lon="14.839699399563">
        <ele>167.8</ele>
        <time>2020-03-09T18:22:06Z</time>
      </trkpt>
      <trkpt lat="56.896228989671" lon="14.839677355166">
        <ele>167.6</ele>
        <time>2020-03-09T18:22:10Z</time>
      </trkpt>
      <trkpt lat="56.896409451978" lon="14.839600996057">
        <ele>167.8</ele>
        <time>2020-03-09T18:22:17Z</time>
      </trkpt>
      <trkpt lat="56.896507268751" lon="14.839511225908">
        <ele>168.4</ele>
        <time>2020-03-09T18:22:22Z</time>
      </trkpt>
      <trkpt lat="56.896521350343" lon="14.839437968102">
        <ele>168.8</ele>
        <time>2020-03-09T18:22:24Z</time>
      </trkpt>
      <trkpt lat="56.896493606254" lon="14.839234204113">
        <ele>170</ele>
        <time>2020-03-09T18:22:29Z</time>
      </trkpt>
      <trkpt lat="56.896464940156" lon="14.839126664336">
        <ele>171</ele>
        <time>2020-03-09T18:22:32Z</time>
      </trkpt>
      <trkpt lat="56.896404171381" lon="14.838844361944">
        <ele>172.2</ele>
        <time>2020-03-09T18:22:39Z</time>
      </trkpt>
      <trkpt lat="56.896375086188" lon="14.838704803309">
        <ele>173.2</ele>
        <time>2020-03-09T18:22:42Z</time>
      </trkpt>
      <trkpt lat="56.89632714172" lon="14.838431637188">
        <ele>174.4</ele>
        <time>2020-03-09T18:22:48Z</time>
      </trkpt>
      <trkpt lat="56.896317418716" lon="14.838270704708">
        <ele>175.6</ele>
        <time>2020-03-09T18:22:52Z</time>
      </trkpt>
      <trkpt lat="56.89632714172" lon="14.838076160809">
        <ele>176.8</ele>
        <time>2020-03-09T18:22:56Z</time>
      </trkpt>
      <trkpt lat="56.896368967401" lon="14.837787823449">
        <ele>177.8</ele>
        <time>2020-03-09T18:23:03Z</time>
      </trkpt>
      <trkpt lat="56.896391095617" lon="14.837421199143">
        <ele>178.2</ele>
        <time>2020-03-09T18:23:11Z</time>
      </trkpt>
      <trkpt lat="56.896315742336" lon="14.837086258419">
        <ele>178.4</ele>
        <time>2020-03-09T18:23:17Z</time>
      </trkpt>
      <trkpt lat="56.89624583729" lon="14.83674419308">
        <ele>178</ele>
        <time>2020-03-09T18:23:24Z</time>
      </trkpt>
      <trkpt lat="56.896169226724" lon="14.836397014782">
        <ele>178.2</ele>
        <time>2020-03-09T18:23:31Z</time>
      </trkpt>
      <trkpt lat="56.896085575362" lon="14.836075401279">
        <ele>178.2</ele>
        <time>2020-03-09T18:23:38Z</time>
      </trkpt>
      <trkpt lat="56.896112481261" lon="14.835735179958">
        <ele>177.8</ele>
        <time>2020-03-09T18:23:45Z</time>
      </trkpt>
      <trkpt lat="56.896242903625" lon="14.835446842598">
        <ele>177.2</ele>
        <time>2020-03-09T18:23:52Z</time>
      </trkpt>
      <trkpt lat="56.896294033215" lon="14.835381799054">
        <ele>176.6</ele>
        <time>2020-03-09T18:23:54Z</time>
      </trkpt>
      <trkpt lat="56.896472651504" lon="14.835195972331">
        <ele>176.6</ele>
        <time>2020-03-09T18:24:01Z</time>
      </trkpt>
      <trkpt lat="56.89666744686" lon="14.835141154705">
        <ele>177.2</ele>
        <time>2020-03-09T18:24:07Z</time>
      </trkpt>
      <trkpt lat="56.896862493673" lon="14.835097317368">
        <ele>177</ele>
        <time>2020-03-09T18:24:14Z</time>
      </trkpt>
      <trkpt lat="56.897053349536" lon="14.835234109976">
        <ele>177.4</ele>
        <time>2020-03-09T18:24:22Z</time>
      </trkpt>
      <trkpt lat="56.897096767778" lon="14.83528909524">
        <ele>177.6</ele>
        <time>2020-03-09T18:24:24Z</time>
      </trkpt>
      <trkpt lat="56.897259795733" lon="14.835442567829">
        <ele>178.6</ele>
        <time>2020-03-09T18:24:31Z</time>
      </trkpt>
      <trkpt lat="56.897357361049" lon="14.835483136225">
        <ele>178.6</ele>
        <time>2020-03-09T18:24:34Z</time>
      </trkpt>
      <trkpt lat="56.897540170288" lon="14.835497133998">
        <ele>179</ele>
        <time>2020-03-09T18:24:40Z</time>
      </trkpt>
      <trkpt lat="56.897724991183" lon="14.835501660224">
        <ele>179.4</ele>
        <time>2020-03-09T18:24:46Z</time>
      </trkpt>
      <trkpt lat="56.8979046153" lon="14.835429659703">
        <ele>178.8</ele>
        <time>2020-03-09T18:24:51Z</time>
      </trkpt>
      <trkpt lat="56.898020872253" lon="14.835327149066">
        <ele>177.6</ele>
        <time>2020-03-09T18:24:55Z</time>
      </trkpt>
      <trkpt lat="56.898179793077" lon="14.83519102701">
        <ele>176.4</ele>
        <time>2020-03-09T18:25:01Z</time>
      </trkpt>
      <trkpt lat="56.898267635389" lon="14.835081559396">
        <ele>175.4</ele>
        <time>2020-03-09T18:25:04Z</time>
      </trkpt>
      <trkpt lat="56.898437620321" lon="14.83493537906">
        <ele>174.4</ele>
        <time>2020-03-09T18:25:10Z</time>
      </trkpt>
      <trkpt lat="56.898627554175" lon="14.834805543429">
        <ele>174.2</ele>
        <time>2020-03-09T18:25:17Z</time>
      </trkpt>
      <trkpt lat="56.89880902231" lon="14.834845608911">
        <ele>173.6</ele>
        <time>2020-03-09T18:25:23Z</time>
      </trkpt>
      <trkpt lat="56.898902815771" lon="14.834980976596">
        <ele>173.2</ele>
        <time>2020-03-09T18:25:26Z</time>
      </trkpt>
      <trkpt lat="56.899014295041" lon="14.835261602608">
        <ele>172.2</ele>
        <time>2020-03-09T18:25:31Z</time>
      </trkpt>
      <trkpt lat="56.899152512572" lon="14.835521106232">
        <ele>171.6</ele>
        <time>2020-03-09T18:25:37Z</time>
      </trkpt>
      <trkpt lat="56.899285030411" lon="14.835595286047">
        <ele>171</ele>
        <time>2020-03-09T18:25:41Z</time>
      </trkpt>
      <trkpt lat="56.899478233206" lon="14.835498223645">
        <ele>170.6</ele>
        <time>2020-03-09T18:25:47Z</time>
      </trkpt>
      <trkpt lat="56.899632292528" lon="14.835283982281">
        <ele>170.6</ele>
        <time>2020-03-09T18:25:54Z</time>
      </trkpt>
      <trkpt lat="56.899785765117" lon="14.835077619903">
        <ele>170</ele>
        <time>2020-03-09T18:26:01Z</time>
      </trkpt>
      <trkpt lat="56.899837229983" lon="14.835007547219">
        <ele>169.8</ele>
        <time>2020-03-09T18:26:03Z</time>
      </trkpt>
      <trkpt lat="56.900011322046" lon="14.834823313057">
        <ele>170</ele>
        <time>2020-03-09T18:26:10Z</time>
      </trkpt>
      <trkpt lat="56.900127998094" lon="14.834727256483">
        <ele>171</ele>
        <time>2020-03-09T18:26:14Z</time>
      </trkpt>
      <trkpt lat="56.900292786248" lon="14.834595576834">
        <ele>171.4</ele>
        <time>2020-03-09T18:26:20Z</time>
      </trkpt>
      <trkpt lat="56.900474086745" lon="14.834473284913">
        <ele>171.2</ele>
        <time>2020-03-09T18:26:26Z</time>
      </trkpt>
      <trkpt lat="56.900650358102" lon="14.834292403511">
        <ele>170.4</ele>
        <time>2020-03-09T18:26:33Z</time>
      </trkpt>
      <trkpt lat="56.900722274804" lon="14.834083694201">
        <ele>169.8</ele>
        <time>2020-03-09T18:26:38Z</time>
      </trkpt>
      <trkpt lat="56.900753958386" lon="14.833720422655">
        <ele>169.6</ele>
        <time>2020-03-09T18:26:45Z</time>
      </trkpt>
      <trkpt lat="56.900691094136" lon="14.833366874113">
        <ele>169.6</ele>
        <time>2020-03-09T18:26:51Z</time>
      </trkpt>
      <trkpt lat="56.900577184115" lon="14.833071915052">
        <ele>169.2</ele>
        <time>2020-03-09T18:26:57Z</time>
      </trkpt>
      <trkpt lat="56.900430249408" lon="14.832848956512">
        <ele>169.2</ele>
        <time>2020-03-09T18:27:04Z</time>
      </trkpt>
      <trkpt lat="56.900291612782" lon="14.832702273262">
        <ele>171</ele>
        <time>2020-03-09T18:27:11Z</time>
      </trkpt>
      <trkpt lat="56.900117101624" lon="14.832566486482">
        <ele>170</ele>
        <time>2020-03-09T18:27:18Z</time>
      </trkpt>
      <trkpt lat="56.899931777815" lon="14.832436147937">
        <ele>170.2</ele>
        <time>2020-03-09T18:27:25Z</time>
      </trkpt>
      <trkpt lat="56.899766570566" lon="14.832271946516">
        <ele>171</ele>
        <time>2020-03-09T18:27:31Z</time>
      </trkpt>
      <trkpt lat="56.899599100204" lon="14.832118557746">
        <ele>171.6</ele>
        <time>2020-03-09T18:27:37Z</time>
      </trkpt>
      <trkpt lat="56.899549563175" lon="14.832054939125">
        <ele>172</ele>
        <time>2020-03-09T18:27:39Z</time>
      </trkpt>
      <trkpt lat="56.89948376526" lon="14.831721171867">
        <ele>173.2</ele>
        <time>2020-03-09T18:27:46Z</time>
      </trkpt>
      <trkpt lat="56.899474126075" lon="14.831569962391">
        <ele>174.2</ele>
        <time>2020-03-09T18:27:50Z</time>
      </trkpt>
      <trkpt lat="56.89946113413" lon="14.831478180586">
        <ele>175.4</ele>
        <time>2020-03-09T18:27:53Z</time>
      </trkpt>
      <trkpt lat="56.899414949861" lon="14.831297215365">
        <ele>176.6</ele>
        <time>2020-03-09T18:27:57Z</time>
      </trkpt>
      <trkpt lat="56.899303722048" lon="14.830988929083">
        <ele>176.4</ele>
        <time>2020-03-09T18:28:04Z</time>
      </trkpt>
      <trkpt lat="56.899249994069" lon="14.830751469856">
        <ele>175.6</ele>
        <time>2020-03-09T18:28:08Z</time>
      </trkpt>
      <trkpt lat="56.899225854197" lon="14.830640912595">
        <ele>174.6</ele>
        <time>2020-03-09T18:28:10Z</time>
      </trkpt>
      <trkpt lat="56.899171371847" lon="14.830459612098">
        <ele>173.4</ele>
        <time>2020-03-09T18:28:13Z</time>
      </trkpt>
      <trkpt lat="56.899099119869" lon="14.830302116197">
        <ele>172</ele>
        <time>2020-03-09T18:28:16Z</time>
      </trkpt>
      <trkpt lat="56.89892888348" lon="14.830111679429">
        <ele>172.2</ele>
        <time>2020-03-09T18:28:24Z</time>
      </trkpt>
      <trkpt lat="56.898762586584" lon="14.829942532687">
        <ele>172.8</ele>
        <time>2020-03-09T18:28:30Z</time>
      </trkpt>
      <trkpt lat="56.898608778719" lon="14.829896432237">
        <ele>170.8</ele>
        <time>2020-03-09T18:28:35Z</time>
      </trkpt>
      <trkpt lat="56.898438877606" lon="14.830031632284">
        <ele>170.4</ele>
        <time>2020-03-09T18:28:43Z</time>
      </trkpt>
      <trkpt lat="56.89833628315" lon="14.83032868682">
        <ele>171.8</ele>
        <time>2020-03-09T18:28:52Z</time>
      </trkpt>
      <trkpt lat="56.89829688822" lon="14.83036053804">
        <ele>172</ele>
        <time>2020-03-09T18:28:54Z</time>
      </trkpt>
      <trkpt lat="56.898169650978" lon="14.830445781963">
        <ele>173</ele>
        <time>2020-03-09T18:28:59Z</time>
      </trkpt>
      <trkpt lat="56.897982064056" lon="14.830577126336">
        <ele>173.2</ele>
        <time>2020-03-09T18:29:06Z</time>
      </trkpt>
      <trkpt lat="56.897807552898" lon="14.830670249245">
        <ele>174</ele>
        <time>2020-03-09T18:29:13Z</time>
      </trkpt>
      <trkpt lat="56.897779976447" lon="14.830691455452">
        <ele>174.2</ele>
        <time>2020-03-09T18:29:14Z</time>
      </trkpt>
      <trkpt lat="56.897607560764" lon="14.830825062938">
        <ele>175.2</ele>
        <time>2020-03-09T18:29:21Z</time>
      </trkpt>
      <trkpt lat="56.897441180049" lon="14.831015834982">
        <ele>175.6</ele>
        <time>2020-03-09T18:29:28Z</time>
      </trkpt>
      <trkpt lat="56.897253257851" lon="14.831148604278">
        <ele>175.6</ele>
        <time>2020-03-09T18:29:35Z</time>
      </trkpt>
      <trkpt lat="56.897080758349" lon="14.831269387457">
        <ele>175.4</ele>
        <time>2020-03-09T18:29:41Z</time>
      </trkpt>
      <trkpt lat="56.896916221652" lon="14.831465021003">
        <ele>175</ele>
        <time>2020-03-09T18:29:47Z</time>
      </trkpt>
      <trkpt lat="56.896731652214" lon="14.83168739281">
        <ele>175.2</ele>
        <time>2020-03-09T18:29:55Z</time>
      </trkpt>
      <trkpt lat="56.896550603174" lon="14.831819491554">
        <ele>175</ele>
        <time>2020-03-09T18:30:02Z</time>
      </trkpt>
      <trkpt lat="56.896370057048" lon="14.832005653553">
        <ele>175.2</ele>
        <time>2020-03-09T18:30:09Z</time>
      </trkpt>
      <trkpt lat="56.896186577257" lon="14.832095842797">
        <ele>175.4</ele>
        <time>2020-03-09T18:30:15Z</time>
      </trkpt>
      <trkpt lat="56.895992033358" lon="14.832164239101">
        <ele>175</ele>
        <time>2020-03-09T18:30:21Z</time>
      </trkpt>
      <trkpt lat="56.895815510544" lon="14.832306060849">
        <ele>175</ele>
        <time>2020-03-09T18:30:27Z</time>
      </trkpt>
      <trkpt lat="56.895647956363" lon="14.832457773239">
        <ele>175.6</ele>
        <time>2020-03-09T18:30:33Z</time>
      </trkpt>
      <trkpt lat="56.895433212085" lon="14.832547627207">
        <ele>175.4</ele>
        <time>2020-03-09T18:30:40Z</time>
      </trkpt>
      <trkpt lat="56.895232884675" lon="14.832577718228">
        <ele>174</ele>
        <time>2020-03-09T18:30:45Z</time>
      </trkpt>
      <trkpt lat="56.895026606116" lon="14.832592889467">
        <ele>173.4</ele>
        <time>2020-03-09T18:30:51Z</time>
      </trkpt>
      <trkpt lat="56.894900626159" lon="14.832667572196">
        <ele>172.8</ele>
        <time>2020-03-09T18:30:55Z</time>
      </trkpt>
      <trkpt lat="56.894727120829" lon="14.832844849381">
        <ele>172.8</ele>
        <time>2020-03-09T18:31:02Z</time>
      </trkpt>
      <trkpt lat="56.894618323767" lon="14.833047942818">
        <ele>173.8</ele>
        <time>2020-03-09T18:31:08Z</time>
      </trkpt>
      <trkpt lat="56.89446887449" lon="14.833302165845">
        <ele>174</ele>
        <time>2020-03-09T18:31:14Z</time>
      </trkpt>
      <trkpt lat="56.894313054969" lon="14.833529231516">
        <ele>174.4</ele>
        <time>2020-03-09T18:31:20Z</time>
      </trkpt>
      <trkpt lat="56.894250190719" lon="14.833594358879">
        <ele>175</ele>
        <time>2020-03-09T18:31:23Z</time>
      </trkpt>
      <trkpt lat="56.894228733055" lon="14.833617828199">
        <ele>175.2</ele>
        <time>2020-03-09T18:31:24Z</time>
      </trkpt>
      <trkpt lat="56.894048270748" lon="14.833725284157">
        <ele>175.4</ele>
        <time>2020-03-09T18:31:30Z</time>
      </trkpt>
      <trkpt lat="56.893853223935" lon="14.833732995505">
        <ele>175.2</ele>
        <time>2020-03-09T18:31:36Z</time>
      </trkpt>
      <trkpt lat="56.893649879041" lon="14.833684380485">
        <ele>175.2</ele>
        <time>2020-03-09T18:31:42Z</time>
      </trkpt>
      <trkpt lat="56.89348064848" lon="14.833562842935">
        <ele>176</ele>
        <time>2020-03-09T18:31:48Z</time>
      </trkpt>
      <trkpt lat="56.893344777881" lon="14.833450190199">
        <ele>177.2</ele>
        <time>2020-03-09T18:31:53Z</time>
      </trkpt>
      <trkpt lat="56.893240171769" lon="14.83335706729">
        <ele>178.2</ele>
        <time>2020-03-09T18:31:57Z</time>
      </trkpt>
      <trkpt lat="56.89306658262" lon="14.833249527513">
        <ele>178.4</ele>
        <time>2020-03-09T18:32:04Z</time>
      </trkpt>
      <trkpt lat="56.892883689562" lon="14.8333143196">
        <ele>178.8</ele>
        <time>2020-03-09T18:32:13Z</time>
      </trkpt>
      <trkpt lat="56.892800960209" lon="14.833319684016">
        <ele>179.2</ele>
        <time>2020-03-09T18:32:17Z</time>
      </trkpt>
      <trkpt lat="56.892609936708" lon="14.833348936847">
        <ele>180</ele>
        <time>2020-03-09T18:32:24Z</time>
      </trkpt>
      <trkpt lat="56.892559729127" lon="14.833352457245">
        <ele>180.2</ele>
        <time>2020-03-09T18:32:26Z</time>
      </trkpt>
      <trkpt lat="56.892404663977" lon="14.833443233222">
        <ele>181.4</ele>
        <time>2020-03-09T18:32:31Z</time>
      </trkpt>
      <trkpt lat="56.892319587692" lon="14.833511126612">
        <ele>182.6</ele>
        <time>2020-03-09T18:32:35Z</time>
      </trkpt>
      <trkpt lat="56.892201235264" lon="14.833535182665">
        <ele>183.6</ele>
        <time>2020-03-09T18:32:39Z</time>
      </trkpt>
      <trkpt lat="56.892009205935" lon="14.833579271459">
        <ele>184.2</ele>
        <time>2020-03-09T18:32:45Z</time>
      </trkpt>
      <trkpt lat="56.891820780823" lon="14.833697959163">
        <ele>184</ele>
        <time>2020-03-09T18:32:52Z</time>
      </trkpt>
      <trkpt lat="56.891628835313" lon="14.833790243882">
        <ele>184.6</ele>
        <time>2020-03-09T18:33:00Z</time>
      </trkpt>
      <trkpt lat="56.891591703496" lon="14.833811617727">
        <ele>184.8</ele>
        <time>2020-03-09T18:33:01Z</time>
      </trkpt>
      <trkpt lat="56.891383832376" lon="14.833890659044">
        <ele>185.6</ele>
        <time>2020-03-09T18:33:08Z</time>
      </trkpt>
      <trkpt lat="56.891359441047" lon="14.833898286573">
        <ele>185.8</ele>
        <time>2020-03-09T18:33:09Z</time>
      </trkpt>
      <trkpt lat="56.89114964209" lon="14.833910188871">
        <ele>186.4</ele>
        <time>2020-03-09T18:33:16Z</time>
      </trkpt>
      <trkpt lat="56.890968760688" lon="14.833767193657">
        <ele>184.8</ele>
        <time>2020-03-09T18:33:22Z</time>
      </trkpt>
      <trkpt lat="56.890938334391" lon="14.833748837296">
        <ele>184.4</ele>
        <time>2020-03-09T18:33:23Z</time>
      </trkpt>
      <trkpt lat="56.890755608971" lon="14.833588743006">
        <ele>183.6</ele>
        <time>2020-03-09T18:33:29Z</time>
      </trkpt>
      <trkpt lat="56.890727445787" lon="14.83355488013">
        <ele>183.4</ele>
        <time>2020-03-09T18:33:30Z</time>
      </trkpt>
      <trkpt lat="56.890582774193" lon="14.833375758927">
        <ele>182</ele>
        <time>2020-03-09T18:33:35Z</time>
      </trkpt>
      <trkpt lat="56.890427709043" lon="14.833244163097">
        <ele>180.8</ele>
        <time>2020-03-09T18:33:39Z</time>
      </trkpt>
      <trkpt lat="56.890379596937" lon="14.833166714341">
        <ele>179.8</ele>
        <time>2020-03-09T18:33:41Z</time>
      </trkpt>
      <trkpt lat="56.890305081846" lon="14.833034615597">
        <ele>178.6</ele>
        <time>2020-03-09T18:33:44Z</time>
      </trkpt>
      <trkpt lat="56.890161164623" lon="14.832745020952">
        <ele>177.8</ele>
        <time>2020-03-09T18:33:50Z</time>
      </trkpt>
      <trkpt lat="56.890036358132" lon="14.832507477906">
        <ele>177.8</ele>
        <time>2020-03-09T18:33:55Z</time>
      </trkpt>
      <trkpt lat="56.889866540838" lon="14.83227831676">
        <ele>178</ele>
        <time>2020-03-09T18:34:01Z</time>
      </trkpt>
      <trkpt lat="56.889707368557" lon="14.832012526711">
        <ele>178.2</ele>
        <time>2020-03-09T18:34:07Z</time>
      </trkpt>
      <trkpt lat="56.889564121886" lon="14.831811277292">
        <ele>178.6</ele>
        <time>2020-03-09T18:34:14Z</time>
      </trkpt>
      <trkpt lat="56.889407799451" lon="14.831653697572">
        <ele>177.8</ele>
        <time>2020-03-09T18:34:20Z</time>
      </trkpt>
      <trkpt lat="56.889340241337" lon="14.831640286532">
        <ele>177</ele>
        <time>2020-03-09T18:34:22Z</time>
      </trkpt>
      <trkpt lat="56.889240161451" lon="14.831584546897">
        <ele>175.8</ele>
        <time>2020-03-09T18:34:25Z</time>
      </trkpt>
      <trkpt lat="56.889172184242" lon="14.831513971299">
        <ele>174.8</ele>
        <time>2020-03-09T18:34:28Z</time>
      </trkpt>
      <trkpt lat="56.889065315017" lon="14.831414645784">
        <ele>173.8</ele>
        <time>2020-03-09T18:34:32Z</time>
      </trkpt>
      <trkpt lat="56.888880997036" lon="14.831283552868">
        <ele>172.8</ele>
        <time>2020-03-09T18:34:37Z</time>
      </trkpt>
      <trkpt lat="56.8888521633" lon="14.831241559549">
        <ele>172.2</ele>
        <time>2020-03-09T18:34:38Z</time>
      </trkpt>
      <trkpt lat="56.888800027882" lon="14.831172492693">
        <ele>170.8</ele>
        <time>2020-03-09T18:34:40Z</time>
      </trkpt>
      <trkpt lat="56.888748143921" lon="14.831101833276">
        <ele>169.6</ele>
        <time>2020-03-09T18:34:42Z</time>
      </trkpt>
      <trkpt lat="56.888637083746" lon="14.830950037067">
        <ele>168.4</ele>
        <time>2020-03-09T18:34:46Z</time>
      </trkpt>
      <trkpt lat="56.888466763538" lon="14.830755912263">
        <ele>167.6</ele>
        <time>2020-03-09T18:34:52Z</time>
      </trkpt>
      <trkpt lat="56.888440863467" lon="14.830731772391">
        <ele>167.2</ele>
        <time>2020-03-09T18:34:53Z</time>
      </trkpt>
      <trkpt lat="56.888365929281" lon="14.830683576466">
        <ele>166.6</ele>
        <time>2020-03-09T18:34:57Z</time>
      </trkpt>
      <trkpt lat="56.888293006751" lon="14.830635212903">
        <ele>166.4</ele>
        <time>2020-03-09T18:35:00Z</time>
      </trkpt>
      <trkpt lat="56.888294599312" lon="14.830531947895">
        <ele>166.2</ele>
        <time>2020-03-09T18:35:02Z</time>
      </trkpt>
      <trkpt lat="56.888322343401" lon="14.830203042139">
        <ele>165.4</ele>
        <time>2020-03-09T18:35:08Z</time>
      </trkpt>
      <trkpt lat="56.888420663088" lon="14.829998859055">
        <ele>165.2</ele>
        <time>2020-03-09T18:35:13Z</time>
      </trkpt>
      <trkpt lat="56.888601795947" lon="14.829814960169">
        <ele>165.8</ele>
        <time>2020-03-09T18:35:21Z</time>
      </trkpt>
      <trkpt lat="56.888803799737" lon="14.829750168082">
        <ele>165.4</ele>
        <time>2020-03-09T18:35:28Z</time>
      </trkpt>
      <trkpt lat="56.889001696396" lon="14.829697697388">
        <ele>165.2</ele>
        <time>2020-03-09T18:35:34Z</time>
      </trkpt>
      <trkpt lat="56.889189283318" lon="14.829589654697">
        <ele>166</ele>
        <time>2020-03-09T18:35:41Z</time>
      </trkpt>
      <trkpt lat="56.889280143114" lon="14.829543721885">
        <ele>166.2</ele>
        <time>2020-03-09T18:35:44Z</time>
      </trkpt>
      <trkpt lat="56.889471166615" lon="14.829509859009">
        <ele>166</ele>
        <time>2020-03-09T18:35:50Z</time>
      </trkpt>
      <trkpt lat="56.889672332215" lon="14.829407264553">
        <ele>166</ele>
        <time>2020-03-09T18:35:56Z</time>
      </trkpt>
      <trkpt lat="56.889724635271" lon="14.829347753063">
        <ele>166.2</ele>
        <time>2020-03-09T18:35:58Z</time>
      </trkpt>
      <trkpt lat="56.889739303596" lon="14.829005520086">
        <ele>166</ele>
        <time>2020-03-09T18:36:05Z</time>
      </trkpt>
      <trkpt lat="56.889859164766" lon="14.828737383105">
        <ele>166.2</ele>
        <time>2020-03-09T18:36:11Z</time>
      </trkpt>
      <trkpt lat="56.890018169409" lon="14.828524650483">
        <ele>166.2</ele>
        <time>2020-03-09T18:36:18Z</time>
      </trkpt>
      <trkpt lat="56.89018153264" lon="14.828335135724">
        <ele>166</ele>
        <time>2020-03-09T18:36:24Z</time>
      </trkpt>
      <trkpt lat="56.890181197364" lon="14.827974965481">
        <ele>165.6</ele>
        <time>2020-03-09T18:36:30Z</time>
      </trkpt>
      <trkpt lat="56.890168037781" lon="14.827635330893">
        <ele>165.6</ele>
        <time>2020-03-09T18:36:35Z</time>
      </trkpt>
      <trkpt lat="56.890185220676" lon="14.827274909193">
        <ele>165.4</ele>
        <time>2020-03-09T18:36:42Z</time>
      </trkpt>
      <trkpt lat="56.890220759932" lon="14.826920438642">
        <ele>165.4</ele>
        <time>2020-03-09T18:36:48Z</time>
      </trkpt>
      <trkpt lat="56.890213132403" lon="14.826546186807">
        <ele>165.6</ele>
        <time>2020-03-09T18:36:54Z</time>
      </trkpt>
      <trkpt lat="56.890244313071" lon="14.826214682662">
        <ele>166</ele>
        <time>2020-03-09T18:36:59Z</time>
      </trkpt>
      <trkpt lat="56.890333496487" lon="14.825905139095">
        <ele>166</ele>
        <time>2020-03-09T18:37:05Z</time>
      </trkpt>
      <trkpt lat="56.890414465641" lon="14.825599199745">
        <ele>167</ele>
        <time>2020-03-09T18:37:11Z</time>
      </trkpt>
      <trkpt lat="56.890549078955" lon="14.825365428554">
        <ele>167</ele>
        <time>2020-03-09T18:37:17Z</time>
      </trkpt>
    </trkseg>
  </trk>
</gpx>